<?xml version="1.0" encoding="UTF-8" standalone="no" ?>
<gpx xmlns="http://www.topografix.com/GPX/1/1" xmlns:xsi="http://www.w3.org/2001/XMLSchema-instance" xsi:schemaLocation="http://www.topografix.com/GPX/1/1 http://www.topografix.com/GPX/1/1/gpx.xsd" version="1.1" creator="VisuGPX - https://www.visugpx.com">
  <metadata>
    <name>Mt POPEY</name>
    <desc><![CDATA[La descente du Mt Popey]]></desc>
  </metadata>
  <wpt lat="45.83878" lon="4.53318">
    <ele>567</ele>
    <name><![CDATA[Pause à 27/5 16:30]]></name>
    <desc><![CDATA[Pause de 9min 8s]]></desc>
  </wpt>
  <wpt lat="45.83916" lon="4.53479">
    <ele>602</ele>
    <name><![CDATA[Pause à 27/5 16:40]]></name>
    <desc><![CDATA[Pause de 14min 41s]]></desc>
  </wpt>
  <wpt lat="45.83585" lon="4.53388">
    <ele>540</ele>
    <name><![CDATA[Pause à 27/5 17:00]]></name>
    <desc><![CDATA[Pause de 2min 12s]]></desc>
  </wpt>
  <trk>
    <name><![CDATA[Poney mont]]></name>
    <trkseg>
      <trkpt lat="45.83878" lon="4.53318">
        <ele>567</ele>
        <time>2015-05-27T14:27:52Z</time>
      </trkpt>
      <trkpt lat="45.83878" lon="4.53318">
        <ele>568</ele>
        <time>2015-05-27T14:28:07Z</time>
      </trkpt>
      <trkpt lat="45.83878" lon="4.53316">
        <ele>568</ele>
        <time>2015-05-27T14:28:19Z</time>
      </trkpt>
      <trkpt lat="45.83878" lon="4.53315">
        <ele>568</ele>
        <time>2015-05-27T14:28:42Z</time>
      </trkpt>
      <trkpt lat="45.83877" lon="4.53315">
        <ele>569</ele>
        <time>2015-05-27T14:28:57Z</time>
      </trkpt>
      <trkpt lat="45.83876" lon="4.53316">
        <ele>570</ele>
        <time>2015-05-27T14:29:12Z</time>
      </trkpt>
      <trkpt lat="45.83876" lon="4.53316">
        <ele>570</ele>
        <time>2015-05-27T14:29:29Z</time>
      </trkpt>
      <trkpt lat="45.83875" lon="4.53316">
        <ele>569</ele>
        <time>2015-05-27T14:29:45Z</time>
      </trkpt>
      <trkpt lat="45.83897" lon="4.53376">
        <ele>593</ele>
        <time>2015-05-27T14:37:00Z</time>
      </trkpt>
      <trkpt lat="45.83902" lon="4.53376">
        <ele>594</ele>
        <time>2015-05-27T14:37:04Z</time>
      </trkpt>
      <trkpt lat="45.83905" lon="4.53382">
        <ele>592</ele>
        <time>2015-05-27T14:37:09Z</time>
      </trkpt>
      <trkpt lat="45.83906" lon="4.53389">
        <ele>592</ele>
        <time>2015-05-27T14:37:13Z</time>
      </trkpt>
      <trkpt lat="45.83907" lon="4.53396">
        <ele>592</ele>
        <time>2015-05-27T14:37:18Z</time>
      </trkpt>
      <trkpt lat="45.83909" lon="4.53403">
        <ele>592</ele>
        <time>2015-05-27T14:37:23Z</time>
      </trkpt>
      <trkpt lat="45.8391" lon="4.5341">
        <ele>592</ele>
        <time>2015-05-27T14:37:27Z</time>
      </trkpt>
      <trkpt lat="45.83912" lon="4.53417">
        <ele>592</ele>
        <time>2015-05-27T14:37:33Z</time>
      </trkpt>
      <trkpt lat="45.83914" lon="4.53423">
        <ele>594</ele>
        <time>2015-05-27T14:37:39Z</time>
      </trkpt>
      <trkpt lat="45.83915" lon="4.5343">
        <ele>596</ele>
        <time>2015-05-27T14:37:44Z</time>
      </trkpt>
      <trkpt lat="45.83913" lon="4.53436">
        <ele>598</ele>
        <time>2015-05-27T14:37:49Z</time>
      </trkpt>
      <trkpt lat="45.83914" lon="4.53444">
        <ele>599</ele>
        <time>2015-05-27T14:37:55Z</time>
      </trkpt>
      <trkpt lat="45.83915" lon="4.53451">
        <ele>600</ele>
        <time>2015-05-27T14:37:59Z</time>
      </trkpt>
      <trkpt lat="45.83914" lon="4.53458">
        <ele>602</ele>
        <time>2015-05-27T14:38:04Z</time>
      </trkpt>
      <trkpt lat="45.83916" lon="4.53465">
        <ele>601</ele>
        <time>2015-05-27T14:38:09Z</time>
      </trkpt>
      <trkpt lat="45.83916" lon="4.53472">
        <ele>601</ele>
        <time>2015-05-27T14:38:13Z</time>
      </trkpt>
      <trkpt lat="45.83917" lon="4.53479">
        <ele>602</ele>
        <time>2015-05-27T14:38:18Z</time>
      </trkpt>
      <trkpt lat="45.83919" lon="4.53486">
        <ele>604</ele>
        <time>2015-05-27T14:38:23Z</time>
      </trkpt>
      <trkpt lat="45.83923" lon="4.5349">
        <ele>609</ele>
        <time>2015-05-27T14:38:29Z</time>
      </trkpt>
      <trkpt lat="45.83926" lon="4.53494">
        <ele>607</ele>
        <time>2015-05-27T14:38:36Z</time>
      </trkpt>
      <trkpt lat="45.83929" lon="4.535">
        <ele>608</ele>
        <time>2015-05-27T14:38:44Z</time>
      </trkpt>
      <trkpt lat="45.8393" lon="4.53507">
        <ele>608</ele>
        <time>2015-05-27T14:38:49Z</time>
      </trkpt>
      <trkpt lat="45.8393" lon="4.53514">
        <ele>607</ele>
        <time>2015-05-27T14:38:52Z</time>
      </trkpt>
      <trkpt lat="45.8393" lon="4.53521">
        <ele>605</ele>
        <time>2015-05-27T14:39:17Z</time>
      </trkpt>
      <trkpt lat="45.83931" lon="4.53522">
        <ele>604</ele>
        <time>2015-05-27T14:39:34Z</time>
      </trkpt>
      <trkpt lat="45.83931" lon="4.53521">
        <ele>604</ele>
        <time>2015-05-27T14:39:49Z</time>
      </trkpt>
      <trkpt lat="45.83931" lon="4.53522">
        <ele>604</ele>
        <time>2015-05-27T14:40:04Z</time>
      </trkpt>
      <trkpt lat="45.83905" lon="4.53414">
        <ele>587</ele>
        <time>2015-05-27T14:52:59Z</time>
      </trkpt>
      <trkpt lat="45.83902" lon="4.53408">
        <ele>584</ele>
        <time>2015-05-27T14:53:04Z</time>
      </trkpt>
      <trkpt lat="45.83902" lon="4.53401">
        <ele>588</ele>
        <time>2015-05-27T14:53:12Z</time>
      </trkpt>
      <trkpt lat="45.83899" lon="4.53395">
        <ele>589</ele>
        <time>2015-05-27T14:53:16Z</time>
      </trkpt>
      <trkpt lat="45.83898" lon="4.53387">
        <ele>591</ele>
        <time>2015-05-27T14:53:20Z</time>
      </trkpt>
      <trkpt lat="45.83894" lon="4.53381">
        <ele>589</ele>
        <time>2015-05-27T14:53:23Z</time>
      </trkpt>
      <trkpt lat="45.83891" lon="4.53374">
        <ele>590</ele>
        <time>2015-05-27T14:53:26Z</time>
      </trkpt>
      <trkpt lat="45.8389" lon="4.53368">
        <ele>589</ele>
        <time>2015-05-27T14:53:29Z</time>
      </trkpt>
      <trkpt lat="45.8389" lon="4.5336">
        <ele>591</ele>
        <time>2015-05-27T14:53:33Z</time>
      </trkpt>
      <trkpt lat="45.83889" lon="4.53353">
        <ele>592</ele>
        <time>2015-05-27T14:53:37Z</time>
      </trkpt>
      <trkpt lat="45.83891" lon="4.53346">
        <ele>593</ele>
        <time>2015-05-27T14:53:41Z</time>
      </trkpt>
      <trkpt lat="45.83887" lon="4.53341">
        <ele>590</ele>
        <time>2015-05-27T14:53:45Z</time>
      </trkpt>
      <trkpt lat="45.83884" lon="4.53335">
        <ele>591</ele>
        <time>2015-05-27T14:53:49Z</time>
      </trkpt>
      <trkpt lat="45.83882" lon="4.53329">
        <ele>586</ele>
        <time>2015-05-27T14:53:54Z</time>
      </trkpt>
      <trkpt lat="45.83878" lon="4.53326">
        <ele>585</ele>
        <time>2015-05-27T14:53:58Z</time>
      </trkpt>
      <trkpt lat="45.83872" lon="4.53327">
        <ele>583</ele>
        <time>2015-05-27T14:54:01Z</time>
      </trkpt>
      <trkpt lat="45.83868" lon="4.53329">
        <ele>583</ele>
        <time>2015-05-27T14:54:04Z</time>
      </trkpt>
      <trkpt lat="45.83862" lon="4.53331">
        <ele>581</ele>
        <time>2015-05-27T14:54:07Z</time>
      </trkpt>
      <trkpt lat="45.8386" lon="4.53337">
        <ele>582</ele>
        <time>2015-05-27T14:54:10Z</time>
      </trkpt>
      <trkpt lat="45.83858" lon="4.53345">
        <ele>580</ele>
        <time>2015-05-27T14:54:14Z</time>
      </trkpt>
      <trkpt lat="45.83854" lon="4.53345">
        <ele>577</ele>
        <time>2015-05-27T14:54:32Z</time>
      </trkpt>
      <trkpt lat="45.83853" lon="4.53345">
        <ele>576</ele>
        <time>2015-05-27T14:54:37Z</time>
      </trkpt>
      <trkpt lat="45.83847" lon="4.53343">
        <ele>575</ele>
        <time>2015-05-27T14:54:40Z</time>
      </trkpt>
      <trkpt lat="45.83842" lon="4.53339">
        <ele>574</ele>
        <time>2015-05-27T14:54:42Z</time>
      </trkpt>
      <trkpt lat="45.83838" lon="4.53334">
        <ele>572</ele>
        <time>2015-05-27T14:54:44Z</time>
      </trkpt>
      <trkpt lat="45.83833" lon="4.53329">
        <ele>572</ele>
        <time>2015-05-27T14:54:46Z</time>
      </trkpt>
      <trkpt lat="45.83829" lon="4.53324">
        <ele>572</ele>
        <time>2015-05-27T14:54:48Z</time>
      </trkpt>
      <trkpt lat="45.83826" lon="4.53316">
        <ele>572</ele>
        <time>2015-05-27T14:54:51Z</time>
      </trkpt>
      <trkpt lat="45.83824" lon="4.5331">
        <ele>571</ele>
        <time>2015-05-27T14:54:55Z</time>
      </trkpt>
      <trkpt lat="45.83822" lon="4.53314">
        <ele>574</ele>
        <time>2015-05-27T14:55:17Z</time>
      </trkpt>
      <trkpt lat="45.83822" lon="4.53314">
        <ele>570</ele>
        <time>2015-05-27T14:55:32Z</time>
      </trkpt>
      <trkpt lat="45.83819" lon="4.53314">
        <ele>569</ele>
        <time>2015-05-27T14:55:36Z</time>
      </trkpt>
      <trkpt lat="45.83815" lon="4.53314">
        <ele>568</ele>
        <time>2015-05-27T14:55:39Z</time>
      </trkpt>
      <trkpt lat="45.8381" lon="4.53315">
        <ele>567</ele>
        <time>2015-05-27T14:55:42Z</time>
      </trkpt>
      <trkpt lat="45.83804" lon="4.53315">
        <ele>566</ele>
        <time>2015-05-27T14:55:46Z</time>
      </trkpt>
      <trkpt lat="45.838" lon="4.53317">
        <ele>564</ele>
        <time>2015-05-27T14:55:54Z</time>
      </trkpt>
      <trkpt lat="45.83796" lon="4.53317">
        <ele>562</ele>
        <time>2015-05-27T14:55:58Z</time>
      </trkpt>
      <trkpt lat="45.8379" lon="4.5332">
        <ele>560</ele>
        <time>2015-05-27T14:56:02Z</time>
      </trkpt>
      <trkpt lat="45.83785" lon="4.53323">
        <ele>560</ele>
        <time>2015-05-27T14:56:06Z</time>
      </trkpt>
      <trkpt lat="45.8378" lon="4.53325">
        <ele>559</ele>
        <time>2015-05-27T14:56:09Z</time>
      </trkpt>
      <trkpt lat="45.83774" lon="4.53325">
        <ele>558</ele>
        <time>2015-05-27T14:56:12Z</time>
      </trkpt>
      <trkpt lat="45.83769" lon="4.53328">
        <ele>556</ele>
        <time>2015-05-27T14:56:15Z</time>
      </trkpt>
      <trkpt lat="45.83763" lon="4.5333">
        <ele>553</ele>
        <time>2015-05-27T14:56:18Z</time>
      </trkpt>
      <trkpt lat="45.83757" lon="4.53331">
        <ele>552</ele>
        <time>2015-05-27T14:56:21Z</time>
      </trkpt>
      <trkpt lat="45.83751" lon="4.5333">
        <ele>552</ele>
        <time>2015-05-27T14:56:24Z</time>
      </trkpt>
      <trkpt lat="45.83745" lon="4.53331">
        <ele>552</ele>
        <time>2015-05-27T14:56:27Z</time>
      </trkpt>
      <trkpt lat="45.83741" lon="4.53333">
        <ele>553</ele>
        <time>2015-05-27T14:56:30Z</time>
      </trkpt>
      <trkpt lat="45.83736" lon="4.53335">
        <ele>552</ele>
        <time>2015-05-27T14:56:33Z</time>
      </trkpt>
      <trkpt lat="45.8373" lon="4.53336">
        <ele>551</ele>
        <time>2015-05-27T14:56:43Z</time>
      </trkpt>
      <trkpt lat="45.83725" lon="4.53337">
        <ele>554</ele>
        <time>2015-05-27T14:56:46Z</time>
      </trkpt>
      <trkpt lat="45.8372" lon="4.53338">
        <ele>553</ele>
        <time>2015-05-27T14:56:49Z</time>
      </trkpt>
      <trkpt lat="45.83714" lon="4.53339">
        <ele>553</ele>
        <time>2015-05-27T14:56:52Z</time>
      </trkpt>
      <trkpt lat="45.83709" lon="4.53341">
        <ele>553</ele>
        <time>2015-05-27T14:56:54Z</time>
      </trkpt>
      <trkpt lat="45.83704" lon="4.53347">
        <ele>554</ele>
        <time>2015-05-27T14:56:57Z</time>
      </trkpt>
      <trkpt lat="45.83699" lon="4.53348">
        <ele>555</ele>
        <time>2015-05-27T14:57:00Z</time>
      </trkpt>
      <trkpt lat="45.83693" lon="4.53348">
        <ele>555</ele>
        <time>2015-05-27T14:57:03Z</time>
      </trkpt>
      <trkpt lat="45.83688" lon="4.53351">
        <ele>556</ele>
        <time>2015-05-27T14:57:06Z</time>
      </trkpt>
      <trkpt lat="45.83683" lon="4.53354">
        <ele>557</ele>
        <time>2015-05-27T14:57:09Z</time>
      </trkpt>
      <trkpt lat="45.83678" lon="4.53355">
        <ele>558</ele>
        <time>2015-05-27T14:57:17Z</time>
      </trkpt>
      <trkpt lat="45.83674" lon="4.53359">
        <ele>558</ele>
        <time>2015-05-27T14:57:20Z</time>
      </trkpt>
      <trkpt lat="45.83667" lon="4.53362">
        <ele>549</ele>
        <time>2015-05-27T14:57:23Z</time>
      </trkpt>
      <trkpt lat="45.83662" lon="4.53363">
        <ele>544</ele>
        <time>2015-05-27T14:57:25Z</time>
      </trkpt>
      <trkpt lat="45.83656" lon="4.53364">
        <ele>542</ele>
        <time>2015-05-27T14:57:27Z</time>
      </trkpt>
      <trkpt lat="45.83651" lon="4.53364">
        <ele>541</ele>
        <time>2015-05-27T14:57:29Z</time>
      </trkpt>
      <trkpt lat="45.83645" lon="4.53364">
        <ele>540</ele>
        <time>2015-05-27T14:57:31Z</time>
      </trkpt>
      <trkpt lat="45.8364" lon="4.53364">
        <ele>542</ele>
        <time>2015-05-27T14:57:33Z</time>
      </trkpt>
      <trkpt lat="45.83633" lon="4.53362">
        <ele>541</ele>
        <time>2015-05-27T14:57:35Z</time>
      </trkpt>
      <trkpt lat="45.83627" lon="4.53361">
        <ele>541</ele>
        <time>2015-05-27T14:57:37Z</time>
      </trkpt>
      <trkpt lat="45.83621" lon="4.5336">
        <ele>543</ele>
        <time>2015-05-27T14:57:39Z</time>
      </trkpt>
      <trkpt lat="45.83614" lon="4.53359">
        <ele>542</ele>
        <time>2015-05-27T14:57:41Z</time>
      </trkpt>
      <trkpt lat="45.83608" lon="4.53356">
        <ele>542</ele>
        <time>2015-05-27T14:57:43Z</time>
      </trkpt>
      <trkpt lat="45.83602" lon="4.53352">
        <ele>539</ele>
        <time>2015-05-27T14:57:45Z</time>
      </trkpt>
      <trkpt lat="45.83596" lon="4.53349">
        <ele>537</ele>
        <time>2015-05-27T14:57:47Z</time>
      </trkpt>
      <trkpt lat="45.8359" lon="4.53348">
        <ele>535</ele>
        <time>2015-05-27T14:57:49Z</time>
      </trkpt>
      <trkpt lat="45.83585" lon="4.53352">
        <ele>535</ele>
        <time>2015-05-27T14:57:51Z</time>
      </trkpt>
      <trkpt lat="45.83584" lon="4.5336">
        <ele>532</ele>
        <time>2015-05-27T14:57:54Z</time>
      </trkpt>
      <trkpt lat="45.83584" lon="4.53368">
        <ele>532</ele>
        <time>2015-05-27T14:57:57Z</time>
      </trkpt>
      <trkpt lat="45.83583" lon="4.53379">
        <ele>535</ele>
        <time>2015-05-27T14:58:00Z</time>
      </trkpt>
      <trkpt lat="45.83585" lon="4.53388">
        <ele>540</ele>
        <time>2015-05-27T14:58:02Z</time>
      </trkpt>
      <trkpt lat="45.83586" lon="4.53396">
        <ele>539</ele>
        <time>2015-05-27T14:58:04Z</time>
      </trkpt>
      <trkpt lat="45.83586" lon="4.53404">
        <ele>528</ele>
        <time>2015-05-27T14:58:06Z</time>
      </trkpt>
      <trkpt lat="45.83582" lon="4.5341">
        <ele>520</ele>
        <time>2015-05-27T14:58:09Z</time>
      </trkpt>
      <trkpt lat="45.83582" lon="4.53409">
        <ele>525</ele>
        <time>2015-05-27T14:58:32Z</time>
      </trkpt>
      <trkpt lat="45.83578" lon="4.53407">
        <ele>549</ele>
        <time>2015-05-27T14:58:40Z</time>
      </trkpt>
      <trkpt lat="45.83579" lon="4.53413">
        <ele>514</ele>
        <time>2015-05-27T14:59:02Z</time>
      </trkpt>
      <trkpt lat="45.83579" lon="4.53414">
        <ele>514</ele>
        <time>2015-05-27T14:59:03Z</time>
      </trkpt>
      <trkpt lat="45.83581" lon="4.53417">
        <ele>516</ele>
        <time>2015-05-27T14:59:32Z</time>
      </trkpt>
      <trkpt lat="45.83582" lon="4.5342">
        <ele>515</ele>
        <time>2015-05-27T14:59:41Z</time>
      </trkpt>
      <trkpt lat="45.83548" lon="4.53432">
        <ele>501</ele>
        <time>2015-05-27T15:00:14Z</time>
      </trkpt>
      <trkpt lat="45.83542" lon="4.53434">
        <ele>499</ele>
        <time>2015-05-27T15:00:16Z</time>
      </trkpt>
      <trkpt lat="45.83534" lon="4.53435">
        <ele>498</ele>
        <time>2015-05-27T15:00:18Z</time>
      </trkpt>
      <trkpt lat="45.83527" lon="4.53438">
        <ele>497</ele>
        <time>2015-05-27T15:00:20Z</time>
      </trkpt>
      <trkpt lat="45.83521" lon="4.53442">
        <ele>496</ele>
        <time>2015-05-27T15:00:22Z</time>
      </trkpt>
      <trkpt lat="45.83518" lon="4.5345">
        <ele>496</ele>
        <time>2015-05-27T15:00:24Z</time>
      </trkpt>
      <trkpt lat="45.83517" lon="4.53459">
        <ele>496</ele>
        <time>2015-05-27T15:00:26Z</time>
      </trkpt>
      <trkpt lat="45.83521" lon="4.53462">
        <ele>499</ele>
        <time>2015-05-27T15:00:27Z</time>
      </trkpt>
      <trkpt lat="45.83526" lon="4.53467">
        <ele>496</ele>
        <time>2015-05-27T15:00:29Z</time>
      </trkpt>
      <trkpt lat="45.83531" lon="4.53473">
        <ele>495</ele>
        <time>2015-05-27T15:00:31Z</time>
      </trkpt>
      <trkpt lat="45.83535" lon="4.53481">
        <ele>495</ele>
        <time>2015-05-27T15:00:33Z</time>
      </trkpt>
      <trkpt lat="45.83539" lon="4.53489">
        <ele>495</ele>
        <time>2015-05-27T15:00:35Z</time>
      </trkpt>
      <trkpt lat="45.83544" lon="4.53499">
        <ele>493</ele>
        <time>2015-05-27T15:00:37Z</time>
      </trkpt>
      <trkpt lat="45.83548" lon="4.53508">
        <ele>494</ele>
        <time>2015-05-27T15:00:39Z</time>
      </trkpt>
      <trkpt lat="45.83553" lon="4.53518">
        <ele>494</ele>
        <time>2015-05-27T15:00:41Z</time>
      </trkpt>
      <trkpt lat="45.83558" lon="4.53527">
        <ele>493</ele>
        <time>2015-05-27T15:00:43Z</time>
      </trkpt>
      <trkpt lat="45.83563" lon="4.53536">
        <ele>493</ele>
        <time>2015-05-27T15:00:45Z</time>
      </trkpt>
      <trkpt lat="45.83567" lon="4.53546">
        <ele>493</ele>
        <time>2015-05-27T15:00:47Z</time>
      </trkpt>
      <trkpt lat="45.83571" lon="4.53556">
        <ele>492</ele>
        <time>2015-05-27T15:00:49Z</time>
      </trkpt>
      <trkpt lat="45.83574" lon="4.53566">
        <ele>492</ele>
        <time>2015-05-27T15:00:51Z</time>
      </trkpt>
      <trkpt lat="45.83575" lon="4.53577">
        <ele>491</ele>
        <time>2015-05-27T15:00:53Z</time>
      </trkpt>
      <trkpt lat="45.83574" lon="4.53589">
        <ele>494</ele>
        <time>2015-05-27T15:00:55Z</time>
      </trkpt>
      <trkpt lat="45.83574" lon="4.536">
        <ele>494</ele>
        <time>2015-05-27T15:00:57Z</time>
      </trkpt>
      <trkpt lat="45.83578" lon="4.53608">
        <ele>527</ele>
        <time>2015-05-27T15:00:59Z</time>
      </trkpt>
      <trkpt lat="45.83583" lon="4.53613">
        <ele>532</ele>
        <time>2015-05-27T15:01:01Z</time>
      </trkpt>
      <trkpt lat="45.83587" lon="4.53617">
        <ele>537</ele>
        <time>2015-05-27T15:01:03Z</time>
      </trkpt>
      <trkpt lat="45.83593" lon="4.53621">
        <ele>538</ele>
        <time>2015-05-27T15:01:06Z</time>
      </trkpt>
      <trkpt lat="45.83598" lon="4.53627">
        <ele>530</ele>
        <time>2015-05-27T15:01:09Z</time>
      </trkpt>
      <trkpt lat="45.83603" lon="4.53631">
        <ele>527</ele>
        <time>2015-05-27T15:01:11Z</time>
      </trkpt>
      <trkpt lat="45.83606" lon="4.53635">
        <ele>527</ele>
        <time>2015-05-27T15:01:13Z</time>
      </trkpt>
      <trkpt lat="45.83613" lon="4.53641">
        <ele>522</ele>
        <time>2015-05-27T15:01:16Z</time>
      </trkpt>
      <trkpt lat="45.83617" lon="4.53645">
        <ele>530</ele>
        <time>2015-05-27T15:01:18Z</time>
      </trkpt>
      <trkpt lat="45.83621" lon="4.53649">
        <ele>528</ele>
        <time>2015-05-27T15:01:20Z</time>
      </trkpt>
      <trkpt lat="45.83625" lon="4.53654">
        <ele>532</ele>
        <time>2015-05-27T15:01:22Z</time>
      </trkpt>
      <trkpt lat="45.8363" lon="4.53659">
        <ele>532</ele>
        <time>2015-05-27T15:01:24Z</time>
      </trkpt>
      <trkpt lat="45.83635" lon="4.53664">
        <ele>529</ele>
        <time>2015-05-27T15:01:26Z</time>
      </trkpt>
      <trkpt lat="45.8364" lon="4.53668">
        <ele>531</ele>
        <time>2015-05-27T15:01:28Z</time>
      </trkpt>
      <trkpt lat="45.83645" lon="4.53673">
        <ele>535</ele>
        <time>2015-05-27T15:01:30Z</time>
      </trkpt>
      <trkpt lat="45.8365" lon="4.53679">
        <ele>533</ele>
        <time>2015-05-27T15:01:32Z</time>
      </trkpt>
      <trkpt lat="45.83655" lon="4.53684">
        <ele>535</ele>
        <time>2015-05-27T15:01:34Z</time>
      </trkpt>
      <trkpt lat="45.8366" lon="4.53689">
        <ele>540</ele>
        <time>2015-05-27T15:01:36Z</time>
      </trkpt>
      <trkpt lat="45.83663" lon="4.53694">
        <ele>541</ele>
        <time>2015-05-27T15:01:38Z</time>
      </trkpt>
      <trkpt lat="45.83666" lon="4.53702">
        <ele>542</ele>
        <time>2015-05-27T15:01:41Z</time>
      </trkpt>
      <trkpt lat="45.8367" lon="4.53708">
        <ele>543</ele>
        <time>2015-05-27T15:01:44Z</time>
      </trkpt>
      <trkpt lat="45.83674" lon="4.53714">
        <ele>546</ele>
        <time>2015-05-27T15:01:46Z</time>
      </trkpt>
      <trkpt lat="45.83678" lon="4.53721">
        <ele>548</ele>
        <time>2015-05-27T15:01:48Z</time>
      </trkpt>
      <trkpt lat="45.83682" lon="4.53731">
        <ele>505</ele>
        <time>2015-05-27T15:01:50Z</time>
      </trkpt>
      <trkpt lat="45.83684" lon="4.53737">
        <ele>506</ele>
        <time>2015-05-27T15:01:51Z</time>
      </trkpt>
      <trkpt lat="45.83687" lon="4.53743">
        <ele>505</ele>
        <time>2015-05-27T15:01:52Z</time>
      </trkpt>
      <trkpt lat="45.83696" lon="4.53753">
        <ele>504</ele>
        <time>2015-05-27T15:01:54Z</time>
      </trkpt>
      <trkpt lat="45.83699" lon="4.53757">
        <ele>505</ele>
        <time>2015-05-27T15:01:55Z</time>
      </trkpt>
      <trkpt lat="45.83706" lon="4.53763">
        <ele>505</ele>
        <time>2015-05-27T15:01:57Z</time>
      </trkpt>
      <trkpt lat="45.83713" lon="4.53767">
        <ele>506</ele>
        <time>2015-05-27T15:01:59Z</time>
      </trkpt>
      <trkpt lat="45.83719" lon="4.53771">
        <ele>506</ele>
        <time>2015-05-27T15:02:01Z</time>
      </trkpt>
      <trkpt lat="45.83725" lon="4.53774">
        <ele>507</ele>
        <time>2015-05-27T15:02:03Z</time>
      </trkpt>
      <trkpt lat="45.8373" lon="4.53773">
        <ele>507</ele>
        <time>2015-05-27T15:02:05Z</time>
      </trkpt>
      <trkpt lat="45.83736" lon="4.53772">
        <ele>509</ele>
        <time>2015-05-27T15:02:08Z</time>
      </trkpt>
      <trkpt lat="45.83741" lon="4.53775">
        <ele>510</ele>
        <time>2015-05-27T15:02:10Z</time>
      </trkpt>
      <trkpt lat="45.83747" lon="4.53777">
        <ele>511</ele>
        <time>2015-05-27T15:02:12Z</time>
      </trkpt>
      <trkpt lat="45.83752" lon="4.53778">
        <ele>510</ele>
        <time>2015-05-27T15:02:14Z</time>
      </trkpt>
      <trkpt lat="45.83757" lon="4.5378">
        <ele>510</ele>
        <time>2015-05-27T15:02:16Z</time>
      </trkpt>
      <trkpt lat="45.83762" lon="4.53782">
        <ele>511</ele>
        <time>2015-05-27T15:02:19Z</time>
      </trkpt>
      <trkpt lat="45.83766" lon="4.53786">
        <ele>509</ele>
        <time>2015-05-27T15:02:22Z</time>
      </trkpt>
      <trkpt lat="45.83772" lon="4.5379">
        <ele>511</ele>
        <time>2015-05-27T15:02:26Z</time>
      </trkpt>
      <trkpt lat="45.83779" lon="4.53793">
        <ele>512</ele>
        <time>2015-05-27T15:02:29Z</time>
      </trkpt>
      <trkpt lat="45.83784" lon="4.53795">
        <ele>512</ele>
        <time>2015-05-27T15:02:31Z</time>
      </trkpt>
      <trkpt lat="45.83794" lon="4.53801">
        <ele>511</ele>
        <time>2015-05-27T15:02:34Z</time>
      </trkpt>
      <trkpt lat="45.83798" lon="4.53803">
        <ele>509</ele>
        <time>2015-05-27T15:02:35Z</time>
      </trkpt>
      <trkpt lat="45.83807" lon="4.53806">
        <ele>508</ele>
        <time>2015-05-27T15:02:37Z</time>
      </trkpt>
      <trkpt lat="45.83812" lon="4.53808">
        <ele>507</ele>
        <time>2015-05-27T15:02:38Z</time>
      </trkpt>
      <trkpt lat="45.83817" lon="4.53809">
        <ele>505</ele>
        <time>2015-05-27T15:02:39Z</time>
      </trkpt>
      <trkpt lat="45.83825" lon="4.53811">
        <ele>503</ele>
        <time>2015-05-27T15:02:41Z</time>
      </trkpt>
      <trkpt lat="45.83831" lon="4.53814">
        <ele>503</ele>
        <time>2015-05-27T15:02:43Z</time>
      </trkpt>
      <trkpt lat="45.83838" lon="4.53815">
        <ele>505</ele>
        <time>2015-05-27T15:02:45Z</time>
      </trkpt>
      <trkpt lat="45.83844" lon="4.53815">
        <ele>505</ele>
        <time>2015-05-27T15:02:47Z</time>
      </trkpt>
      <trkpt lat="45.83851" lon="4.53814">
        <ele>504</ele>
        <time>2015-05-27T15:02:49Z</time>
      </trkpt>
      <trkpt lat="45.83857" lon="4.53813">
        <ele>505</ele>
        <time>2015-05-27T15:02:51Z</time>
      </trkpt>
      <trkpt lat="45.83862" lon="4.53812">
        <ele>503</ele>
        <time>2015-05-27T15:02:53Z</time>
      </trkpt>
      <trkpt lat="45.83869" lon="4.53811">
        <ele>505</ele>
        <time>2015-05-27T15:02:56Z</time>
      </trkpt>
      <trkpt lat="45.83875" lon="4.53812">
        <ele>506</ele>
        <time>2015-05-27T15:02:58Z</time>
      </trkpt>
      <trkpt lat="45.83881" lon="4.53813">
        <ele>506</ele>
        <time>2015-05-27T15:03:00Z</time>
      </trkpt>
      <trkpt lat="45.83886" lon="4.53813">
        <ele>508</ele>
        <time>2015-05-27T15:03:02Z</time>
      </trkpt>
      <trkpt lat="45.83892" lon="4.53812">
        <ele>509</ele>
        <time>2015-05-27T15:03:04Z</time>
      </trkpt>
      <trkpt lat="45.839" lon="4.53812">
        <ele>508</ele>
        <time>2015-05-27T15:03:06Z</time>
      </trkpt>
      <trkpt lat="45.83904" lon="4.53812">
        <ele>507</ele>
        <time>2015-05-27T15:03:07Z</time>
      </trkpt>
      <trkpt lat="45.8391" lon="4.53812">
        <ele>513</ele>
        <time>2015-05-27T15:03:08Z</time>
      </trkpt>
      <trkpt lat="45.83916" lon="4.53813">
        <ele>513</ele>
        <time>2015-05-27T15:03:09Z</time>
      </trkpt>
      <trkpt lat="45.83922" lon="4.53814">
        <ele>513</ele>
        <time>2015-05-27T15:03:10Z</time>
      </trkpt>
      <trkpt lat="45.83928" lon="4.53815">
        <ele>513</ele>
        <time>2015-05-27T15:03:11Z</time>
      </trkpt>
      <trkpt lat="45.83953" lon="4.53821">
        <ele>512</ele>
        <time>2015-05-27T15:03:13Z</time>
      </trkpt>
      <trkpt lat="45.83958" lon="4.53821">
        <ele>511</ele>
        <time>2015-05-27T15:03:14Z</time>
      </trkpt>
      <trkpt lat="45.83965" lon="4.53822">
        <ele>510</ele>
        <time>2015-05-27T15:03:15Z</time>
      </trkpt>
      <trkpt lat="45.83971" lon="4.53823">
        <ele>510</ele>
        <time>2015-05-27T15:03:16Z</time>
      </trkpt>
      <trkpt lat="45.83978" lon="4.53822">
        <ele>509</ele>
        <time>2015-05-27T15:03:17Z</time>
      </trkpt>
      <trkpt lat="45.83987" lon="4.53821">
        <ele>509</ele>
        <time>2015-05-27T15:03:18Z</time>
      </trkpt>
      <trkpt lat="45.83994" lon="4.53821">
        <ele>510</ele>
        <time>2015-05-27T15:03:19Z</time>
      </trkpt>
      <trkpt lat="45.83998" lon="4.53817">
        <ele>509</ele>
        <time>2015-05-27T15:03:20Z</time>
      </trkpt>
      <trkpt lat="45.84005" lon="4.53815">
        <ele>509</ele>
        <time>2015-05-27T15:03:21Z</time>
      </trkpt>
      <trkpt lat="45.84012" lon="4.53812">
        <ele>509</ele>
        <time>2015-05-27T15:03:22Z</time>
      </trkpt>
      <trkpt lat="45.84018" lon="4.53813">
        <ele>508</ele>
        <time>2015-05-27T15:03:23Z</time>
      </trkpt>
      <trkpt lat="45.84025" lon="4.53814">
        <ele>507</ele>
        <time>2015-05-27T15:03:24Z</time>
      </trkpt>
      <trkpt lat="45.84032" lon="4.53816">
        <ele>506</ele>
        <time>2015-05-27T15:03:25Z</time>
      </trkpt>
      <trkpt lat="45.84042" lon="4.5382">
        <ele>506</ele>
        <time>2015-05-27T15:03:27Z</time>
      </trkpt>
      <trkpt lat="45.84053" lon="4.53823">
        <ele>506</ele>
        <time>2015-05-27T15:03:29Z</time>
      </trkpt>
      <trkpt lat="45.84058" lon="4.53823">
        <ele>506</ele>
        <time>2015-05-27T15:03:30Z</time>
      </trkpt>
      <trkpt lat="45.84064" lon="4.53822">
        <ele>506</ele>
        <time>2015-05-27T15:03:31Z</time>
      </trkpt>
      <trkpt lat="45.84069" lon="4.53821">
        <ele>507</ele>
        <time>2015-05-27T15:03:32Z</time>
      </trkpt>
      <trkpt lat="45.84077" lon="4.5382">
        <ele>506</ele>
        <time>2015-05-27T15:03:33Z</time>
      </trkpt>
      <trkpt lat="45.84082" lon="4.53816">
        <ele>507</ele>
        <time>2015-05-27T15:03:34Z</time>
      </trkpt>
      <trkpt lat="45.84088" lon="4.53814">
        <ele>506</ele>
        <time>2015-05-27T15:03:35Z</time>
      </trkpt>
      <trkpt lat="45.84097" lon="4.53811">
        <ele>507</ele>
        <time>2015-05-27T15:03:37Z</time>
      </trkpt>
      <trkpt lat="45.84102" lon="4.53808">
        <ele>506</ele>
        <time>2015-05-27T15:03:38Z</time>
      </trkpt>
      <trkpt lat="45.84114" lon="4.53804">
        <ele>507</ele>
        <time>2015-05-27T15:03:40Z</time>
      </trkpt>
      <trkpt lat="45.84119" lon="4.53802">
        <ele>507</ele>
        <time>2015-05-27T15:03:41Z</time>
      </trkpt>
      <trkpt lat="45.84123" lon="4.53798">
        <ele>505</ele>
        <time>2015-05-27T15:03:42Z</time>
      </trkpt>
      <trkpt lat="45.8413" lon="4.53792">
        <ele>505</ele>
        <time>2015-05-27T15:03:44Z</time>
      </trkpt>
      <trkpt lat="45.84135" lon="4.53787">
        <ele>505</ele>
        <time>2015-05-27T15:03:46Z</time>
      </trkpt>
      <trkpt lat="45.8414" lon="4.53784">
        <ele>507</ele>
        <time>2015-05-27T15:03:47Z</time>
      </trkpt>
      <trkpt lat="45.84144" lon="4.53778">
        <ele>506</ele>
        <time>2015-05-27T15:03:48Z</time>
      </trkpt>
      <trkpt lat="45.84148" lon="4.53773">
        <ele>504</ele>
        <time>2015-05-27T15:03:49Z</time>
      </trkpt>
      <trkpt lat="45.84149" lon="4.53766">
        <ele>503</ele>
        <time>2015-05-27T15:03:50Z</time>
      </trkpt>
      <trkpt lat="45.84151" lon="4.53758">
        <ele>499</ele>
        <time>2015-05-27T15:03:52Z</time>
      </trkpt>
      <trkpt lat="45.84153" lon="4.5375">
        <ele>498</ele>
        <time>2015-05-27T15:03:54Z</time>
      </trkpt>
      <trkpt lat="45.84156" lon="4.53742">
        <ele>499</ele>
        <time>2015-05-27T15:03:56Z</time>
      </trkpt>
      <trkpt lat="45.84161" lon="4.53734">
        <ele>500</ele>
        <time>2015-05-27T15:03:58Z</time>
      </trkpt>
      <trkpt lat="45.84164" lon="4.53728">
        <ele>499</ele>
        <time>2015-05-27T15:04:00Z</time>
      </trkpt>
      <trkpt lat="45.84166" lon="4.5372">
        <ele>498</ele>
        <time>2015-05-27T15:04:03Z</time>
      </trkpt>
      <trkpt lat="45.84167" lon="4.53713">
        <ele>498</ele>
        <time>2015-05-27T15:04:07Z</time>
      </trkpt>
      <trkpt lat="45.84168" lon="4.53706">
        <ele>501</ele>
        <time>2015-05-27T15:04:12Z</time>
      </trkpt>
      <trkpt lat="45.84168" lon="4.53697">
        <ele>497</ele>
        <time>2015-05-27T15:04:16Z</time>
      </trkpt>
      <trkpt lat="45.84169" lon="4.5369">
        <ele>495</ele>
        <time>2015-05-27T15:04:19Z</time>
      </trkpt>
      <trkpt lat="45.84169" lon="4.53682">
        <ele>491</ele>
        <time>2015-05-27T15:04:22Z</time>
      </trkpt>
      <trkpt lat="45.84169" lon="4.53673">
        <ele>492</ele>
        <time>2015-05-27T15:04:25Z</time>
      </trkpt>
      <trkpt lat="45.8417" lon="4.53666">
        <ele>495</ele>
        <time>2015-05-27T15:04:28Z</time>
      </trkpt>
      <trkpt lat="45.84174" lon="4.5366">
        <ele>496</ele>
        <time>2015-05-27T15:04:31Z</time>
      </trkpt>
      <trkpt lat="45.84176" lon="4.53653">
        <ele>497</ele>
        <time>2015-05-27T15:04:34Z</time>
      </trkpt>
      <trkpt lat="45.84174" lon="4.53646">
        <ele>494</ele>
        <time>2015-05-27T15:04:36Z</time>
      </trkpt>
      <trkpt lat="45.84175" lon="4.53637">
        <ele>494</ele>
        <time>2015-05-27T15:04:39Z</time>
      </trkpt>
      <trkpt lat="45.84177" lon="4.53629">
        <ele>497</ele>
        <time>2015-05-27T15:04:42Z</time>
      </trkpt>
      <trkpt lat="45.8418" lon="4.53622">
        <ele>499</ele>
        <time>2015-05-27T15:04:45Z</time>
      </trkpt>
      <trkpt lat="45.84181" lon="4.53614">
        <ele>499</ele>
        <time>2015-05-27T15:04:48Z</time>
      </trkpt>
      <trkpt lat="45.84183" lon="4.53605">
        <ele>498</ele>
        <time>2015-05-27T15:04:51Z</time>
      </trkpt>
      <trkpt lat="45.84185" lon="4.53599">
        <ele>499</ele>
        <time>2015-05-27T15:04:53Z</time>
      </trkpt>
      <trkpt lat="45.84187" lon="4.53593">
        <ele>500</ele>
        <time>2015-05-27T15:04:55Z</time>
      </trkpt>
      <trkpt lat="45.84189" lon="4.53584">
        <ele>499</ele>
        <time>2015-05-27T15:04:58Z</time>
      </trkpt>
      <trkpt lat="45.84188" lon="4.53577">
        <ele>498</ele>
        <time>2015-05-27T15:05:00Z</time>
      </trkpt>
      <trkpt lat="45.84186" lon="4.5357">
        <ele>500</ele>
        <time>2015-05-27T15:05:02Z</time>
      </trkpt>
      <trkpt lat="45.84185" lon="4.53562">
        <ele>498</ele>
        <time>2015-05-27T15:05:04Z</time>
      </trkpt>
      <trkpt lat="45.84185" lon="4.53554">
        <ele>498</ele>
        <time>2015-05-27T15:05:06Z</time>
      </trkpt>
      <trkpt lat="45.84184" lon="4.53544">
        <ele>498</ele>
        <time>2015-05-27T15:05:08Z</time>
      </trkpt>
      <trkpt lat="45.84184" lon="4.53532">
        <ele>499</ele>
        <time>2015-05-27T15:05:10Z</time>
      </trkpt>
      <trkpt lat="45.84183" lon="4.5352">
        <ele>500</ele>
        <time>2015-05-27T15:05:12Z</time>
      </trkpt>
      <trkpt lat="45.84182" lon="4.53509">
        <ele>499</ele>
        <time>2015-05-27T15:05:14Z</time>
      </trkpt>
      <trkpt lat="45.84182" lon="4.535">
        <ele>500</ele>
        <time>2015-05-27T15:05:16Z</time>
      </trkpt>
      <trkpt lat="45.84182" lon="4.5349">
        <ele>496</ele>
        <time>2015-05-27T15:05:18Z</time>
      </trkpt>
      <trkpt lat="45.84179" lon="4.5348">
        <ele>500</ele>
        <time>2015-05-27T15:05:20Z</time>
      </trkpt>
      <trkpt lat="45.84178" lon="4.53471">
        <ele>503</ele>
        <time>2015-05-27T15:05:22Z</time>
      </trkpt>
      <trkpt lat="45.84177" lon="4.5346">
        <ele>501</ele>
        <time>2015-05-27T15:05:24Z</time>
      </trkpt>
      <trkpt lat="45.84176" lon="4.5345">
        <ele>501</ele>
        <time>2015-05-27T15:05:26Z</time>
      </trkpt>
      <trkpt lat="45.84177" lon="4.53439">
        <ele>459</ele>
        <time>2015-05-27T15:05:28Z</time>
      </trkpt>
      <trkpt lat="45.84178" lon="4.53429">
        <ele>466</ele>
        <time>2015-05-27T15:05:30Z</time>
      </trkpt>
      <trkpt lat="45.84176" lon="4.53422">
        <ele>471</ele>
        <time>2015-05-27T15:05:31Z</time>
      </trkpt>
      <trkpt lat="45.84173" lon="4.53415">
        <ele>479</ele>
        <time>2015-05-27T15:05:32Z</time>
      </trkpt>
      <trkpt lat="45.84171" lon="4.5341">
        <ele>482</ele>
        <time>2015-05-27T15:05:33Z</time>
      </trkpt>
      <trkpt lat="45.84166" lon="4.53398">
        <ele>488</ele>
        <time>2015-05-27T15:05:35Z</time>
      </trkpt>
      <trkpt lat="45.84164" lon="4.53392">
        <ele>487</ele>
        <time>2015-05-27T15:05:36Z</time>
      </trkpt>
      <trkpt lat="45.84162" lon="4.53379">
        <ele>487</ele>
        <time>2015-05-27T15:05:38Z</time>
      </trkpt>
      <trkpt lat="45.84158" lon="4.53366">
        <ele>503</ele>
        <time>2015-05-27T15:05:40Z</time>
      </trkpt>
      <trkpt lat="45.84156" lon="4.5336">
        <ele>503</ele>
        <time>2015-05-27T15:05:41Z</time>
      </trkpt>
      <trkpt lat="45.8415" lon="4.5335">
        <ele>504</ele>
        <time>2015-05-27T15:05:43Z</time>
      </trkpt>
      <trkpt lat="45.84144" lon="4.5334">
        <ele>547</ele>
        <time>2015-05-27T15:05:45Z</time>
      </trkpt>
      <trkpt lat="45.84139" lon="4.53332">
        <ele>548</ele>
        <time>2015-05-27T15:05:47Z</time>
      </trkpt>
      <trkpt lat="45.84135" lon="4.53326">
        <ele>548</ele>
        <time>2015-05-27T15:05:49Z</time>
      </trkpt>
      <trkpt lat="45.84134" lon="4.53318">
        <ele>547</ele>
        <time>2015-05-27T15:05:51Z</time>
      </trkpt>
      <trkpt lat="45.84132" lon="4.5331">
        <ele>545</ele>
        <time>2015-05-27T15:05:53Z</time>
      </trkpt>
      <trkpt lat="45.8413" lon="4.53303">
        <ele>543</ele>
        <time>2015-05-27T15:05:55Z</time>
      </trkpt>
      <trkpt lat="45.84129" lon="4.53296">
        <ele>543</ele>
        <time>2015-05-27T15:05:57Z</time>
      </trkpt>
      <trkpt lat="45.84126" lon="4.53289">
        <ele>543</ele>
        <time>2015-05-27T15:05:59Z</time>
      </trkpt>
      <trkpt lat="45.84125" lon="4.53282">
        <ele>536</ele>
        <time>2015-05-27T15:06:01Z</time>
      </trkpt>
      <trkpt lat="45.84123" lon="4.53273">
        <ele>550</ele>
        <time>2015-05-27T15:06:03Z</time>
      </trkpt>
      <trkpt lat="45.84119" lon="4.53264">
        <ele>550</ele>
        <time>2015-05-27T15:06:05Z</time>
      </trkpt>
      <trkpt lat="45.84118" lon="4.53256">
        <ele>551</ele>
        <time>2015-05-27T15:06:07Z</time>
      </trkpt>
      <trkpt lat="45.84115" lon="4.53239">
        <ele>545</ele>
        <time>2015-05-27T15:06:09Z</time>
      </trkpt>
      <trkpt lat="45.84112" lon="4.53233">
        <ele>535</ele>
        <time>2015-05-27T15:06:10Z</time>
      </trkpt>
      <trkpt lat="45.84111" lon="4.5322">
        <ele>515</ele>
        <time>2015-05-27T15:06:12Z</time>
      </trkpt>
      <trkpt lat="45.84113" lon="4.53209">
        <ele>505</ele>
        <time>2015-05-27T15:06:14Z</time>
      </trkpt>
      <trkpt lat="45.84116" lon="4.53198">
        <ele>498</ele>
        <time>2015-05-27T15:06:16Z</time>
      </trkpt>
      <trkpt lat="45.84118" lon="4.53189">
        <ele>494</ele>
        <time>2015-05-27T15:06:18Z</time>
      </trkpt>
      <trkpt lat="45.8412" lon="4.53181">
        <ele>491</ele>
        <time>2015-05-27T15:06:21Z</time>
      </trkpt>
      <trkpt lat="45.84123" lon="4.53174">
        <ele>489</ele>
        <time>2015-05-27T15:06:24Z</time>
      </trkpt>
      <trkpt lat="45.84126" lon="4.53166">
        <ele>487</ele>
        <time>2015-05-27T15:06:26Z</time>
      </trkpt>
      <trkpt lat="45.8413" lon="4.53158">
        <ele>485</ele>
        <time>2015-05-27T15:06:28Z</time>
      </trkpt>
      <trkpt lat="45.84135" lon="4.53149">
        <ele>484</ele>
        <time>2015-05-27T15:06:30Z</time>
      </trkpt>
      <trkpt lat="45.8414" lon="4.53142">
        <ele>482</ele>
        <time>2015-05-27T15:06:32Z</time>
      </trkpt>
      <trkpt lat="45.84145" lon="4.53135">
        <ele>480</ele>
        <time>2015-05-27T15:06:34Z</time>
      </trkpt>
      <trkpt lat="45.8415" lon="4.53127">
        <ele>479</ele>
        <time>2015-05-27T15:06:36Z</time>
      </trkpt>
      <trkpt lat="45.84158" lon="4.5312">
        <ele>477</ele>
        <time>2015-05-27T15:06:38Z</time>
      </trkpt>
      <trkpt lat="45.84162" lon="4.53118">
        <ele>477</ele>
        <time>2015-05-27T15:06:39Z</time>
      </trkpt>
      <trkpt lat="45.84167" lon="4.53116">
        <ele>476</ele>
        <time>2015-05-27T15:06:40Z</time>
      </trkpt>
      <trkpt lat="45.84171" lon="4.53115">
        <ele>475</ele>
        <time>2015-05-27T15:06:41Z</time>
      </trkpt>
      <trkpt lat="45.84176" lon="4.53112">
        <ele>475</ele>
        <time>2015-05-27T15:06:42Z</time>
      </trkpt>
      <trkpt lat="45.84184" lon="4.53108">
        <ele>475</ele>
        <time>2015-05-27T15:06:44Z</time>
      </trkpt>
      <trkpt lat="45.84192" lon="4.53103">
        <ele>472</ele>
        <time>2015-05-27T15:06:46Z</time>
      </trkpt>
      <trkpt lat="45.842" lon="4.53098">
        <ele>471</ele>
        <time>2015-05-27T15:06:48Z</time>
      </trkpt>
      <trkpt lat="45.84209" lon="4.53093">
        <ele>471</ele>
        <time>2015-05-27T15:06:50Z</time>
      </trkpt>
      <trkpt lat="45.84213" lon="4.53091">
        <ele>472</ele>
        <time>2015-05-27T15:06:51Z</time>
      </trkpt>
      <trkpt lat="45.84217" lon="4.53089">
        <ele>471</ele>
        <time>2015-05-27T15:06:52Z</time>
      </trkpt>
      <trkpt lat="45.84222" lon="4.53087">
        <ele>471</ele>
        <time>2015-05-27T15:06:53Z</time>
      </trkpt>
      <trkpt lat="45.8423" lon="4.53081">
        <ele>471</ele>
        <time>2015-05-27T15:06:55Z</time>
      </trkpt>
      <trkpt lat="45.84237" lon="4.53074">
        <ele>473</ele>
        <time>2015-05-27T15:06:57Z</time>
      </trkpt>
      <trkpt lat="45.84241" lon="4.53071">
        <ele>471</ele>
        <time>2015-05-27T15:06:58Z</time>
      </trkpt>
      <trkpt lat="45.84248" lon="4.53062">
        <ele>470</ele>
        <time>2015-05-27T15:07:00Z</time>
      </trkpt>
      <trkpt lat="45.8425" lon="4.53053">
        <ele>469</ele>
        <time>2015-05-27T15:07:01Z</time>
      </trkpt>
      <trkpt lat="45.84255" lon="4.53042">
        <ele>467</ele>
        <time>2015-05-27T15:07:03Z</time>
      </trkpt>
      <trkpt lat="45.84256" lon="4.53036">
        <ele>467</ele>
        <time>2015-05-27T15:07:04Z</time>
      </trkpt>
      <trkpt lat="45.84258" lon="4.53024">
        <ele>465</ele>
        <time>2015-05-27T15:07:06Z</time>
      </trkpt>
      <trkpt lat="45.8426" lon="4.53018">
        <ele>466</ele>
        <time>2015-05-27T15:07:07Z</time>
      </trkpt>
      <trkpt lat="45.84263" lon="4.53012">
        <ele>466</ele>
        <time>2015-05-27T15:07:08Z</time>
      </trkpt>
      <trkpt lat="45.84264" lon="4.53005">
        <ele>465</ele>
        <time>2015-05-27T15:07:09Z</time>
      </trkpt>
      <trkpt lat="45.84266" lon="4.52997">
        <ele>464</ele>
        <time>2015-05-27T15:07:10Z</time>
      </trkpt>
      <trkpt lat="45.84269" lon="4.52989">
        <ele>464</ele>
        <time>2015-05-27T15:07:11Z</time>
      </trkpt>
      <trkpt lat="45.84273" lon="4.52983">
        <ele>465</ele>
        <time>2015-05-27T15:07:12Z</time>
      </trkpt>
      <trkpt lat="45.84278" lon="4.52976">
        <ele>463</ele>
        <time>2015-05-27T15:07:13Z</time>
      </trkpt>
      <trkpt lat="45.84277" lon="4.52969">
        <ele>463</ele>
        <time>2015-05-27T15:07:14Z</time>
      </trkpt>
      <trkpt lat="45.84278" lon="4.52962">
        <ele>462</ele>
        <time>2015-05-27T15:07:15Z</time>
      </trkpt>
      <trkpt lat="45.84282" lon="4.5295">
        <ele>459</ele>
        <time>2015-05-27T15:07:17Z</time>
      </trkpt>
      <trkpt lat="45.84284" lon="4.52944">
        <ele>456</ele>
        <time>2015-05-27T15:07:18Z</time>
      </trkpt>
      <trkpt lat="45.84286" lon="4.52937">
        <ele>455</ele>
        <time>2015-05-27T15:07:19Z</time>
      </trkpt>
      <trkpt lat="45.84288" lon="4.5293">
        <ele>455</ele>
        <time>2015-05-27T15:07:20Z</time>
      </trkpt>
      <trkpt lat="45.8429" lon="4.52923">
        <ele>454</ele>
        <time>2015-05-27T15:07:21Z</time>
      </trkpt>
      <trkpt lat="45.8429" lon="4.52911">
        <ele>454</ele>
        <time>2015-05-27T15:07:23Z</time>
      </trkpt>
      <trkpt lat="45.84291" lon="4.529">
        <ele>452</ele>
        <time>2015-05-27T15:07:25Z</time>
      </trkpt>
      <trkpt lat="45.84293" lon="4.52888">
        <ele>453</ele>
        <time>2015-05-27T15:07:27Z</time>
      </trkpt>
      <trkpt lat="45.84294" lon="4.52881">
        <ele>452</ele>
        <time>2015-05-27T15:07:28Z</time>
      </trkpt>
      <trkpt lat="45.84295" lon="4.52874">
        <ele>451</ele>
        <time>2015-05-27T15:07:29Z</time>
      </trkpt>
      <trkpt lat="45.84297" lon="4.52868">
        <ele>451</ele>
        <time>2015-05-27T15:07:30Z</time>
      </trkpt>
      <trkpt lat="45.84299" lon="4.52862">
        <ele>450</ele>
        <time>2015-05-27T15:07:31Z</time>
      </trkpt>
      <trkpt lat="45.84301" lon="4.52856">
        <ele>451</ele>
        <time>2015-05-27T15:07:32Z</time>
      </trkpt>
      <trkpt lat="45.84305" lon="4.52851">
        <ele>451</ele>
        <time>2015-05-27T15:07:33Z</time>
      </trkpt>
      <trkpt lat="45.84309" lon="4.52847">
        <ele>450</ele>
        <time>2015-05-27T15:07:34Z</time>
      </trkpt>
      <trkpt lat="45.84315" lon="4.52846">
        <ele>451</ele>
        <time>2015-05-27T15:07:35Z</time>
      </trkpt>
      <trkpt lat="45.8432" lon="4.52847">
        <ele>450</ele>
        <time>2015-05-27T15:07:36Z</time>
      </trkpt>
      <trkpt lat="45.84327" lon="4.52848">
        <ele>449</ele>
        <time>2015-05-27T15:07:37Z</time>
      </trkpt>
      <trkpt lat="45.84333" lon="4.52849">
        <ele>448</ele>
        <time>2015-05-27T15:07:38Z</time>
      </trkpt>
      <trkpt lat="45.84338" lon="4.52849">
        <ele>448</ele>
        <time>2015-05-27T15:07:39Z</time>
      </trkpt>
      <trkpt lat="45.84343" lon="4.52849">
        <ele>447</ele>
        <time>2015-05-27T15:07:40Z</time>
      </trkpt>
      <trkpt lat="45.84348" lon="4.5285">
        <ele>447</ele>
        <time>2015-05-27T15:07:41Z</time>
      </trkpt>
      <trkpt lat="45.84354" lon="4.52849">
        <ele>447</ele>
        <time>2015-05-27T15:07:42Z</time>
      </trkpt>
      <trkpt lat="45.84359" lon="4.52848">
        <ele>446</ele>
        <time>2015-05-27T15:07:43Z</time>
      </trkpt>
      <trkpt lat="45.84366" lon="4.52846">
        <ele>445</ele>
        <time>2015-05-27T15:07:44Z</time>
      </trkpt>
      <trkpt lat="45.8437" lon="4.52846">
        <ele>444</ele>
        <time>2015-05-27T15:07:45Z</time>
      </trkpt>
      <trkpt lat="45.8438" lon="4.52845">
        <ele>444</ele>
        <time>2015-05-27T15:07:47Z</time>
      </trkpt>
      <trkpt lat="45.8439" lon="4.52844">
        <ele>444</ele>
        <time>2015-05-27T15:07:49Z</time>
      </trkpt>
      <trkpt lat="45.84395" lon="4.52844">
        <ele>444</ele>
        <time>2015-05-27T15:07:50Z</time>
      </trkpt>
      <trkpt lat="45.844" lon="4.52843">
        <ele>443</ele>
        <time>2015-05-27T15:07:51Z</time>
      </trkpt>
      <trkpt lat="45.84406" lon="4.52843">
        <ele>443</ele>
        <time>2015-05-27T15:07:52Z</time>
      </trkpt>
      <trkpt lat="45.84412" lon="4.52844">
        <ele>442</ele>
        <time>2015-05-27T15:07:53Z</time>
      </trkpt>
      <trkpt lat="45.8442" lon="4.52844">
        <ele>443</ele>
        <time>2015-05-27T15:07:54Z</time>
      </trkpt>
      <trkpt lat="45.84428" lon="4.52845">
        <ele>442</ele>
        <time>2015-05-27T15:07:55Z</time>
      </trkpt>
      <trkpt lat="45.84436" lon="4.52847">
        <ele>442</ele>
        <time>2015-05-27T15:07:56Z</time>
      </trkpt>
      <trkpt lat="45.84444" lon="4.52848">
        <ele>441</ele>
        <time>2015-05-27T15:07:57Z</time>
      </trkpt>
      <trkpt lat="45.84452" lon="4.52849">
        <ele>441</ele>
        <time>2015-05-27T15:07:58Z</time>
      </trkpt>
      <trkpt lat="45.84459" lon="4.52849">
        <ele>441</ele>
        <time>2015-05-27T15:07:59Z</time>
      </trkpt>
      <trkpt lat="45.84468" lon="4.52849">
        <ele>442</ele>
        <time>2015-05-27T15:08:00Z</time>
      </trkpt>
      <trkpt lat="45.84474" lon="4.5285">
        <ele>442</ele>
        <time>2015-05-27T15:08:01Z</time>
      </trkpt>
      <trkpt lat="45.84479" lon="4.52852">
        <ele>443</ele>
        <time>2015-05-27T15:08:02Z</time>
      </trkpt>
      <trkpt lat="45.84486" lon="4.52856">
        <ele>442</ele>
        <time>2015-05-27T15:08:03Z</time>
      </trkpt>
      <trkpt lat="45.84492" lon="4.52858">
        <ele>442</ele>
        <time>2015-05-27T15:08:04Z</time>
      </trkpt>
      <trkpt lat="45.84497" lon="4.52861">
        <ele>442</ele>
        <time>2015-05-27T15:08:05Z</time>
      </trkpt>
      <trkpt lat="45.84504" lon="4.52865">
        <ele>441</ele>
        <time>2015-05-27T15:08:07Z</time>
      </trkpt>
      <trkpt lat="45.84514" lon="4.52868">
        <ele>441</ele>
        <time>2015-05-27T15:08:09Z</time>
      </trkpt>
      <trkpt lat="45.84518" lon="4.52871">
        <ele>440</ele>
        <time>2015-05-27T15:08:10Z</time>
      </trkpt>
      <trkpt lat="45.84523" lon="4.52873">
        <ele>440</ele>
        <time>2015-05-27T15:08:11Z</time>
      </trkpt>
      <trkpt lat="45.8453" lon="4.52875">
        <ele>458</ele>
        <time>2015-05-27T15:08:12Z</time>
      </trkpt>
      <trkpt lat="45.8454" lon="4.52881">
        <ele>459</ele>
        <time>2015-05-27T15:08:14Z</time>
      </trkpt>
      <trkpt lat="45.84547" lon="4.52884">
        <ele>463</ele>
        <time>2015-05-27T15:08:15Z</time>
      </trkpt>
      <trkpt lat="45.84555" lon="4.52887">
        <ele>460</ele>
        <time>2015-05-27T15:08:16Z</time>
      </trkpt>
      <trkpt lat="45.84562" lon="4.52891">
        <ele>459</ele>
        <time>2015-05-27T15:08:17Z</time>
      </trkpt>
      <trkpt lat="45.8457" lon="4.52892">
        <ele>459</ele>
        <time>2015-05-27T15:08:18Z</time>
      </trkpt>
      <trkpt lat="45.84577" lon="4.52892">
        <ele>458</ele>
        <time>2015-05-27T15:08:19Z</time>
      </trkpt>
      <trkpt lat="45.84582" lon="4.52893">
        <ele>455</ele>
        <time>2015-05-27T15:08:20Z</time>
      </trkpt>
      <trkpt lat="45.84588" lon="4.52893">
        <ele>460</ele>
        <time>2015-05-27T15:08:21Z</time>
      </trkpt>
      <trkpt lat="45.84592" lon="4.52894">
        <ele>460</ele>
        <time>2015-05-27T15:08:22Z</time>
      </trkpt>
      <trkpt lat="45.84597" lon="4.52894">
        <ele>458</ele>
        <time>2015-05-27T15:08:23Z</time>
      </trkpt>
      <trkpt lat="45.84607" lon="4.52897">
        <ele>468</ele>
        <time>2015-05-27T15:08:25Z</time>
      </trkpt>
      <trkpt lat="45.84612" lon="4.52899">
        <ele>465</ele>
        <time>2015-05-27T15:08:26Z</time>
      </trkpt>
      <trkpt lat="45.84618" lon="4.529">
        <ele>466</ele>
        <time>2015-05-27T15:08:27Z</time>
      </trkpt>
      <trkpt lat="45.84625" lon="4.52902">
        <ele>462</ele>
        <time>2015-05-27T15:08:28Z</time>
      </trkpt>
      <trkpt lat="45.84631" lon="4.52904">
        <ele>460</ele>
        <time>2015-05-27T15:08:29Z</time>
      </trkpt>
      <trkpt lat="45.84638" lon="4.52907">
        <ele>461</ele>
        <time>2015-05-27T15:08:30Z</time>
      </trkpt>
      <trkpt lat="45.84644" lon="4.52909">
        <ele>460</ele>
        <time>2015-05-27T15:08:31Z</time>
      </trkpt>
      <trkpt lat="45.84649" lon="4.52911">
        <ele>460</ele>
        <time>2015-05-27T15:08:32Z</time>
      </trkpt>
      <trkpt lat="45.84656" lon="4.52914">
        <ele>465</ele>
        <time>2015-05-27T15:08:34Z</time>
      </trkpt>
      <trkpt lat="45.84661" lon="4.52917">
        <ele>464</ele>
        <time>2015-05-27T15:08:35Z</time>
      </trkpt>
      <trkpt lat="45.84666" lon="4.5292">
        <ele>466</ele>
        <time>2015-05-27T15:08:36Z</time>
      </trkpt>
      <trkpt lat="45.84672" lon="4.52927">
        <ele>466</ele>
        <time>2015-05-27T15:08:38Z</time>
      </trkpt>
      <trkpt lat="45.84675" lon="4.52942">
        <ele>462</ele>
        <time>2015-05-27T15:08:39Z</time>
      </trkpt>
      <trkpt lat="45.84677" lon="4.5295">
        <ele>462</ele>
        <time>2015-05-27T15:08:40Z</time>
      </trkpt>
      <trkpt lat="45.8468" lon="4.52963">
        <ele>447</ele>
        <time>2015-05-27T15:08:41Z</time>
      </trkpt>
      <trkpt lat="45.84684" lon="4.52974">
        <ele>438</ele>
        <time>2015-05-27T15:08:42Z</time>
      </trkpt>
      <trkpt lat="45.84687" lon="4.52985">
        <ele>434</ele>
        <time>2015-05-27T15:08:43Z</time>
      </trkpt>
      <trkpt lat="45.84693" lon="4.52995">
        <ele>427</ele>
        <time>2015-05-27T15:08:44Z</time>
      </trkpt>
      <trkpt lat="45.84697" lon="4.53003">
        <ele>424</ele>
        <time>2015-05-27T15:08:45Z</time>
      </trkpt>
      <trkpt lat="45.84702" lon="4.53011">
        <ele>424</ele>
        <time>2015-05-27T15:08:46Z</time>
      </trkpt>
      <trkpt lat="45.84707" lon="4.53018">
        <ele>424</ele>
        <time>2015-05-27T15:08:47Z</time>
      </trkpt>
      <trkpt lat="45.84709" lon="4.53026">
        <ele>422</ele>
        <time>2015-05-27T15:08:48Z</time>
      </trkpt>
      <trkpt lat="45.84712" lon="4.53033">
        <ele>422</ele>
        <time>2015-05-27T15:08:49Z</time>
      </trkpt>
      <trkpt lat="45.84714" lon="4.53041">
        <ele>420</ele>
        <time>2015-05-27T15:08:50Z</time>
      </trkpt>
      <trkpt lat="45.84719" lon="4.53043">
        <ele>420</ele>
        <time>2015-05-27T15:08:51Z</time>
      </trkpt>
      <trkpt lat="45.84725" lon="4.53047">
        <ele>420</ele>
        <time>2015-05-27T15:08:53Z</time>
      </trkpt>
      <trkpt lat="45.84724" lon="4.53055">
        <ele>419</ele>
        <time>2015-05-27T15:08:56Z</time>
      </trkpt>
      <trkpt lat="45.84726" lon="4.53062">
        <ele>419</ele>
        <time>2015-05-27T15:08:59Z</time>
      </trkpt>
      <trkpt lat="45.84724" lon="4.53068">
        <ele>420</ele>
        <time>2015-05-27T15:09:01Z</time>
      </trkpt>
      <trkpt lat="45.84716" lon="4.53085">
        <ele>419</ele>
        <time>2015-05-27T15:09:03Z</time>
      </trkpt>
      <trkpt lat="45.84718" lon="4.53092">
        <ele>419</ele>
        <time>2015-05-27T15:09:04Z</time>
      </trkpt>
      <trkpt lat="45.8472" lon="4.53102">
        <ele>419</ele>
        <time>2015-05-27T15:09:05Z</time>
      </trkpt>
      <trkpt lat="45.84721" lon="4.5311">
        <ele>420</ele>
        <time>2015-05-27T15:09:06Z</time>
      </trkpt>
      <trkpt lat="45.84723" lon="4.53119">
        <ele>419</ele>
        <time>2015-05-27T15:09:07Z</time>
      </trkpt>
      <trkpt lat="45.84725" lon="4.53127">
        <ele>418</ele>
        <time>2015-05-27T15:09:08Z</time>
      </trkpt>
      <trkpt lat="45.84722" lon="4.53136">
        <ele>417</ele>
        <time>2015-05-27T15:09:09Z</time>
      </trkpt>
      <trkpt lat="45.84724" lon="4.53142">
        <ele>417</ele>
        <time>2015-05-27T15:09:10Z</time>
      </trkpt>
      <trkpt lat="45.84731" lon="4.53143">
        <ele>418</ele>
        <time>2015-05-27T15:09:12Z</time>
      </trkpt>
      <trkpt lat="45.84736" lon="4.53142">
        <ele>419</ele>
        <time>2015-05-27T15:09:13Z</time>
      </trkpt>
      <trkpt lat="45.8474" lon="4.5314">
        <ele>419</ele>
        <time>2015-05-27T15:09:14Z</time>
      </trkpt>
      <trkpt lat="45.84744" lon="4.53138">
        <ele>417</ele>
        <time>2015-05-27T15:09:15Z</time>
      </trkpt>
      <trkpt lat="45.84749" lon="4.53136">
        <ele>417</ele>
        <time>2015-05-27T15:09:16Z</time>
      </trkpt>
      <trkpt lat="45.84758" lon="4.53136">
        <ele>417</ele>
        <time>2015-05-27T15:09:17Z</time>
      </trkpt>
      <trkpt lat="45.84763" lon="4.53133">
        <ele>417</ele>
        <time>2015-05-27T15:09:18Z</time>
      </trkpt>
      <trkpt lat="45.84772" lon="4.53134">
        <ele>417</ele>
        <time>2015-05-27T15:09:19Z</time>
      </trkpt>
      <trkpt lat="45.84779" lon="4.53133">
        <ele>417</ele>
        <time>2015-05-27T15:09:20Z</time>
      </trkpt>
      <trkpt lat="45.84786" lon="4.5313">
        <ele>426</ele>
        <time>2015-05-27T15:09:21Z</time>
      </trkpt>
      <trkpt lat="45.84795" lon="4.53134">
        <ele>426</ele>
        <time>2015-05-27T15:09:22Z</time>
      </trkpt>
      <trkpt lat="45.84805" lon="4.53137">
        <ele>425</ele>
        <time>2015-05-27T15:09:23Z</time>
      </trkpt>
      <trkpt lat="45.84815" lon="4.53139">
        <ele>424</ele>
        <time>2015-05-27T15:09:24Z</time>
      </trkpt>
      <trkpt lat="45.84823" lon="4.53143">
        <ele>422</ele>
        <time>2015-05-27T15:09:25Z</time>
      </trkpt>
      <trkpt lat="45.84831" lon="4.53145">
        <ele>422</ele>
        <time>2015-05-27T15:09:26Z</time>
      </trkpt>
      <trkpt lat="45.8485" lon="4.53146">
        <ele>422</ele>
        <time>2015-05-27T15:09:28Z</time>
      </trkpt>
      <trkpt lat="45.8486" lon="4.53148">
        <ele>425</ele>
        <time>2015-05-27T15:09:29Z</time>
      </trkpt>
      <trkpt lat="45.84869" lon="4.53153">
        <ele>423</ele>
        <time>2015-05-27T15:09:30Z</time>
      </trkpt>
      <trkpt lat="45.84879" lon="4.53158">
        <ele>422</ele>
        <time>2015-05-27T15:09:31Z</time>
      </trkpt>
      <trkpt lat="45.84888" lon="4.53164">
        <ele>420</ele>
        <time>2015-05-27T15:09:32Z</time>
      </trkpt>
      <trkpt lat="45.84897" lon="4.5317">
        <ele>418</ele>
        <time>2015-05-27T15:09:33Z</time>
      </trkpt>
      <trkpt lat="45.84905" lon="4.53176">
        <ele>416</ele>
        <time>2015-05-27T15:09:34Z</time>
      </trkpt>
      <trkpt lat="45.84913" lon="4.53183">
        <ele>415</ele>
        <time>2015-05-27T15:09:35Z</time>
      </trkpt>
      <trkpt lat="45.8492" lon="4.53187">
        <ele>414</ele>
        <time>2015-05-27T15:09:36Z</time>
      </trkpt>
      <trkpt lat="45.84927" lon="4.53193">
        <ele>417</ele>
        <time>2015-05-27T15:09:37Z</time>
      </trkpt>
      <trkpt lat="45.84944" lon="4.53202">
        <ele>414</ele>
        <time>2015-05-27T15:09:39Z</time>
      </trkpt>
      <trkpt lat="45.84951" lon="4.53204">
        <ele>411</ele>
        <time>2015-05-27T15:09:40Z</time>
      </trkpt>
      <trkpt lat="45.84961" lon="4.53203">
        <ele>417</ele>
        <time>2015-05-27T15:09:41Z</time>
      </trkpt>
      <trkpt lat="45.8497" lon="4.53202">
        <ele>415</ele>
        <time>2015-05-27T15:09:42Z</time>
      </trkpt>
      <trkpt lat="45.84978" lon="4.532">
        <ele>412</ele>
        <time>2015-05-27T15:09:43Z</time>
      </trkpt>
      <trkpt lat="45.84986" lon="4.53198">
        <ele>410</ele>
        <time>2015-05-27T15:09:44Z</time>
      </trkpt>
      <trkpt lat="45.84995" lon="4.53194">
        <ele>409</ele>
        <time>2015-05-27T15:09:45Z</time>
      </trkpt>
      <trkpt lat="45.85004" lon="4.5319">
        <ele>408</ele>
        <time>2015-05-27T15:09:46Z</time>
      </trkpt>
      <trkpt lat="45.85012" lon="4.53185">
        <ele>406</ele>
        <time>2015-05-27T15:09:47Z</time>
      </trkpt>
      <trkpt lat="45.8502" lon="4.53182">
        <ele>406</ele>
        <time>2015-05-27T15:09:48Z</time>
      </trkpt>
      <trkpt lat="45.85029" lon="4.53179">
        <ele>405</ele>
        <time>2015-05-27T15:09:49Z</time>
      </trkpt>
      <trkpt lat="45.85037" lon="4.53175">
        <ele>405</ele>
        <time>2015-05-27T15:09:50Z</time>
      </trkpt>
      <trkpt lat="45.85045" lon="4.53172">
        <ele>406</ele>
        <time>2015-05-27T15:09:51Z</time>
      </trkpt>
      <trkpt lat="45.85051" lon="4.53168">
        <ele>405</ele>
        <time>2015-05-27T15:09:52Z</time>
      </trkpt>
      <trkpt lat="45.8506" lon="4.53163">
        <ele>403</ele>
        <time>2015-05-27T15:09:53Z</time>
      </trkpt>
      <trkpt lat="45.85067" lon="4.53158">
        <ele>402</ele>
        <time>2015-05-27T15:09:54Z</time>
      </trkpt>
      <trkpt lat="45.85075" lon="4.5315">
        <ele>401</ele>
        <time>2015-05-27T15:09:55Z</time>
      </trkpt>
      <trkpt lat="45.85082" lon="4.53143">
        <ele>401</ele>
        <time>2015-05-27T15:09:56Z</time>
      </trkpt>
      <trkpt lat="45.85088" lon="4.53135">
        <ele>401</ele>
        <time>2015-05-27T15:09:57Z</time>
      </trkpt>
      <trkpt lat="45.85095" lon="4.53127">
        <ele>400</ele>
        <time>2015-05-27T15:09:58Z</time>
      </trkpt>
      <trkpt lat="45.85101" lon="4.53119">
        <ele>400</ele>
        <time>2015-05-27T15:09:59Z</time>
      </trkpt>
      <trkpt lat="45.85106" lon="4.5311">
        <ele>398</ele>
        <time>2015-05-27T15:10:00Z</time>
      </trkpt>
      <trkpt lat="45.8511" lon="4.531">
        <ele>397</ele>
        <time>2015-05-27T15:10:01Z</time>
      </trkpt>
      <trkpt lat="45.85115" lon="4.5309">
        <ele>396</ele>
        <time>2015-05-27T15:10:02Z</time>
      </trkpt>
      <trkpt lat="45.85119" lon="4.53078">
        <ele>405</ele>
        <time>2015-05-27T15:10:03Z</time>
      </trkpt>
      <trkpt lat="45.85124" lon="4.53068">
        <ele>408</ele>
        <time>2015-05-27T15:10:04Z</time>
      </trkpt>
      <trkpt lat="45.85128" lon="4.53057">
        <ele>407</ele>
        <time>2015-05-27T15:10:05Z</time>
      </trkpt>
      <trkpt lat="45.85134" lon="4.53044">
        <ele>407</ele>
        <time>2015-05-27T15:10:06Z</time>
      </trkpt>
      <trkpt lat="45.85138" lon="4.53033">
        <ele>405</ele>
        <time>2015-05-27T15:10:07Z</time>
      </trkpt>
      <trkpt lat="45.85143" lon="4.5302">
        <ele>406</ele>
        <time>2015-05-27T15:10:08Z</time>
      </trkpt>
      <trkpt lat="45.85147" lon="4.53007">
        <ele>407</ele>
        <time>2015-05-27T15:10:09Z</time>
      </trkpt>
      <trkpt lat="45.8515" lon="4.52994">
        <ele>407</ele>
        <time>2015-05-27T15:10:10Z</time>
      </trkpt>
      <trkpt lat="45.85153" lon="4.5298">
        <ele>406</ele>
        <time>2015-05-27T15:10:11Z</time>
      </trkpt>
      <trkpt lat="45.85154" lon="4.52968">
        <ele>409</ele>
        <time>2015-05-27T15:10:12Z</time>
      </trkpt>
      <trkpt lat="45.85157" lon="4.52953">
        <ele>411</ele>
        <time>2015-05-27T15:10:13Z</time>
      </trkpt>
      <trkpt lat="45.85159" lon="4.5294">
        <ele>412</ele>
        <time>2015-05-27T15:10:14Z</time>
      </trkpt>
      <trkpt lat="45.85163" lon="4.5293">
        <ele>416</ele>
        <time>2015-05-27T15:10:15Z</time>
      </trkpt>
      <trkpt lat="45.85167" lon="4.52918">
        <ele>412</ele>
        <time>2015-05-27T15:10:16Z</time>
      </trkpt>
      <trkpt lat="45.85172" lon="4.52911">
        <ele>413</ele>
        <time>2015-05-27T15:10:17Z</time>
      </trkpt>
      <trkpt lat="45.85178" lon="4.52904">
        <ele>409</ele>
        <time>2015-05-27T15:10:18Z</time>
      </trkpt>
      <trkpt lat="45.85185" lon="4.52901">
        <ele>408</ele>
        <time>2015-05-27T15:10:19Z</time>
      </trkpt>
      <trkpt lat="45.85193" lon="4.52903">
        <ele>406</ele>
        <time>2015-05-27T15:10:20Z</time>
      </trkpt>
      <trkpt lat="45.852" lon="4.52908">
        <ele>407</ele>
        <time>2015-05-27T15:10:21Z</time>
      </trkpt>
      <trkpt lat="45.85206" lon="4.52916">
        <ele>403</ele>
        <time>2015-05-27T15:10:22Z</time>
      </trkpt>
      <trkpt lat="45.85212" lon="4.52926">
        <ele>403</ele>
        <time>2015-05-27T15:10:23Z</time>
      </trkpt>
      <trkpt lat="45.85217" lon="4.52935">
        <ele>402</ele>
        <time>2015-05-27T15:10:24Z</time>
      </trkpt>
      <trkpt lat="45.85222" lon="4.52946">
        <ele>398</ele>
        <time>2015-05-27T15:10:25Z</time>
      </trkpt>
      <trkpt lat="45.85228" lon="4.52956">
        <ele>397</ele>
        <time>2015-05-27T15:10:26Z</time>
      </trkpt>
      <trkpt lat="45.85233" lon="4.52968">
        <ele>397</ele>
        <time>2015-05-27T15:10:27Z</time>
      </trkpt>
      <trkpt lat="45.8524" lon="4.52979">
        <ele>396</ele>
        <time>2015-05-27T15:10:28Z</time>
      </trkpt>
      <trkpt lat="45.85247" lon="4.5299">
        <ele>396</ele>
        <time>2015-05-27T15:10:29Z</time>
      </trkpt>
      <trkpt lat="45.85253" lon="4.53">
        <ele>395</ele>
        <time>2015-05-27T15:10:30Z</time>
      </trkpt>
      <trkpt lat="45.85259" lon="4.5301">
        <ele>394</ele>
        <time>2015-05-27T15:10:31Z</time>
      </trkpt>
      <trkpt lat="45.85265" lon="4.53022">
        <ele>394</ele>
        <time>2015-05-27T15:10:32Z</time>
      </trkpt>
      <trkpt lat="45.85271" lon="4.53033">
        <ele>394</ele>
        <time>2015-05-27T15:10:33Z</time>
      </trkpt>
      <trkpt lat="45.85276" lon="4.53044">
        <ele>393</ele>
        <time>2015-05-27T15:10:34Z</time>
      </trkpt>
      <trkpt lat="45.85284" lon="4.53059">
        <ele>386</ele>
        <time>2015-05-27T15:10:35Z</time>
      </trkpt>
      <trkpt lat="45.85291" lon="4.53072">
        <ele>391</ele>
        <time>2015-05-27T15:10:36Z</time>
      </trkpt>
      <trkpt lat="45.85296" lon="4.53082">
        <ele>392</ele>
        <time>2015-05-27T15:10:37Z</time>
      </trkpt>
      <trkpt lat="45.85302" lon="4.53093">
        <ele>391</ele>
        <time>2015-05-27T15:10:38Z</time>
      </trkpt>
      <trkpt lat="45.85308" lon="4.53105">
        <ele>396</ele>
        <time>2015-05-27T15:10:39Z</time>
      </trkpt>
      <trkpt lat="45.85316" lon="4.53116">
        <ele>383</ele>
        <time>2015-05-27T15:10:40Z</time>
      </trkpt>
      <trkpt lat="45.85322" lon="4.53127">
        <ele>378</ele>
        <time>2015-05-27T15:10:41Z</time>
      </trkpt>
      <trkpt lat="45.85328" lon="4.53138">
        <ele>374</ele>
        <time>2015-05-27T15:10:42Z</time>
      </trkpt>
      <trkpt lat="45.85333" lon="4.53149">
        <ele>371</ele>
        <time>2015-05-27T15:10:43Z</time>
      </trkpt>
      <trkpt lat="45.85338" lon="4.53159">
        <ele>369</ele>
        <time>2015-05-27T15:10:44Z</time>
      </trkpt>
      <trkpt lat="45.85344" lon="4.5317">
        <ele>365</ele>
        <time>2015-05-27T15:10:45Z</time>
      </trkpt>
      <trkpt lat="45.8535" lon="4.53182">
        <ele>363</ele>
        <time>2015-05-27T15:10:46Z</time>
      </trkpt>
      <trkpt lat="45.85356" lon="4.53192">
        <ele>361</ele>
        <time>2015-05-27T15:10:47Z</time>
      </trkpt>
      <trkpt lat="45.85361" lon="4.532">
        <ele>360</ele>
        <time>2015-05-27T15:10:48Z</time>
      </trkpt>
      <trkpt lat="45.85366" lon="4.53209">
        <ele>360</ele>
        <time>2015-05-27T15:10:49Z</time>
      </trkpt>
      <trkpt lat="45.8537" lon="4.5322">
        <ele>358</ele>
        <time>2015-05-27T15:10:50Z</time>
      </trkpt>
      <trkpt lat="45.85376" lon="4.5323">
        <ele>357</ele>
        <time>2015-05-27T15:10:51Z</time>
      </trkpt>
      <trkpt lat="45.85381" lon="4.5324">
        <ele>357</ele>
        <time>2015-05-27T15:10:52Z</time>
      </trkpt>
      <trkpt lat="45.85386" lon="4.53248">
        <ele>357</ele>
        <time>2015-05-27T15:10:53Z</time>
      </trkpt>
      <trkpt lat="45.85391" lon="4.53259">
        <ele>354</ele>
        <time>2015-05-27T15:10:54Z</time>
      </trkpt>
      <trkpt lat="45.85396" lon="4.53267">
        <ele>354</ele>
        <time>2015-05-27T15:10:55Z</time>
      </trkpt>
      <trkpt lat="45.85401" lon="4.53277">
        <ele>354</ele>
        <time>2015-05-27T15:10:56Z</time>
      </trkpt>
      <trkpt lat="45.85408" lon="4.53286">
        <ele>354</ele>
        <time>2015-05-27T15:10:57Z</time>
      </trkpt>
      <trkpt lat="45.85415" lon="4.53295">
        <ele>355</ele>
        <time>2015-05-27T15:10:58Z</time>
      </trkpt>
      <trkpt lat="45.85422" lon="4.53303">
        <ele>354</ele>
        <time>2015-05-27T15:10:59Z</time>
      </trkpt>
      <trkpt lat="45.8543" lon="4.53311">
        <ele>354</ele>
        <time>2015-05-27T15:11:00Z</time>
      </trkpt>
      <trkpt lat="45.85439" lon="4.53317">
        <ele>354</ele>
        <time>2015-05-27T15:11:01Z</time>
      </trkpt>
      <trkpt lat="45.85449" lon="4.53324">
        <ele>426</ele>
        <time>2015-05-27T15:11:02Z</time>
      </trkpt>
      <trkpt lat="45.85457" lon="4.53329">
        <ele>427</ele>
        <time>2015-05-27T15:11:03Z</time>
      </trkpt>
      <trkpt lat="45.85465" lon="4.53336">
        <ele>431</ele>
        <time>2015-05-27T15:11:04Z</time>
      </trkpt>
      <trkpt lat="45.85473" lon="4.53343">
        <ele>428</ele>
        <time>2015-05-27T15:11:05Z</time>
      </trkpt>
      <trkpt lat="45.85482" lon="4.53349">
        <ele>395</ele>
        <time>2015-05-27T15:11:06Z</time>
      </trkpt>
      <trkpt lat="45.8549" lon="4.53353">
        <ele>426</ele>
        <time>2015-05-27T15:11:07Z</time>
      </trkpt>
      <trkpt lat="45.85499" lon="4.53357">
        <ele>428</ele>
        <time>2015-05-27T15:11:08Z</time>
      </trkpt>
      <trkpt lat="45.85506" lon="4.53362">
        <ele>439</ele>
        <time>2015-05-27T15:11:09Z</time>
      </trkpt>
      <trkpt lat="45.85515" lon="4.53367">
        <ele>431</ele>
        <time>2015-05-27T15:11:10Z</time>
      </trkpt>
      <trkpt lat="45.85523" lon="4.53372">
        <ele>432</ele>
        <time>2015-05-27T15:11:11Z</time>
      </trkpt>
      <trkpt lat="45.85531" lon="4.53377">
        <ele>420</ele>
        <time>2015-05-27T15:11:12Z</time>
      </trkpt>
      <trkpt lat="45.8554" lon="4.53383">
        <ele>422</ele>
        <time>2015-05-27T15:11:13Z</time>
      </trkpt>
      <trkpt lat="45.85549" lon="4.53388">
        <ele>418</ele>
        <time>2015-05-27T15:11:14Z</time>
      </trkpt>
      <trkpt lat="45.85558" lon="4.53394">
        <ele>416</ele>
        <time>2015-05-27T15:11:15Z</time>
      </trkpt>
      <trkpt lat="45.85564" lon="4.53398">
        <ele>425</ele>
        <time>2015-05-27T15:11:16Z</time>
      </trkpt>
      <trkpt lat="45.85573" lon="4.53404">
        <ele>426</ele>
        <time>2015-05-27T15:11:17Z</time>
      </trkpt>
      <trkpt lat="45.85582" lon="4.53409">
        <ele>426</ele>
        <time>2015-05-27T15:11:18Z</time>
      </trkpt>
      <trkpt lat="45.8559" lon="4.53415">
        <ele>419</ele>
        <time>2015-05-27T15:11:19Z</time>
      </trkpt>
      <trkpt lat="45.85597" lon="4.53419">
        <ele>416</ele>
        <time>2015-05-27T15:11:20Z</time>
      </trkpt>
      <trkpt lat="45.85605" lon="4.53425">
        <ele>418</ele>
        <time>2015-05-27T15:11:21Z</time>
      </trkpt>
      <trkpt lat="45.85613" lon="4.5343">
        <ele>415</ele>
        <time>2015-05-27T15:11:22Z</time>
      </trkpt>
      <trkpt lat="45.85621" lon="4.53436">
        <ele>414</ele>
        <time>2015-05-27T15:11:23Z</time>
      </trkpt>
      <trkpt lat="45.8563" lon="4.53439">
        <ele>421</ele>
        <time>2015-05-27T15:11:24Z</time>
      </trkpt>
      <trkpt lat="45.85638" lon="4.53444">
        <ele>419</ele>
        <time>2015-05-27T15:11:25Z</time>
      </trkpt>
      <trkpt lat="45.85647" lon="4.53449">
        <ele>415</ele>
        <time>2015-05-27T15:11:26Z</time>
      </trkpt>
      <trkpt lat="45.85656" lon="4.53452">
        <ele>425</ele>
        <time>2015-05-27T15:11:27Z</time>
      </trkpt>
      <trkpt lat="45.85665" lon="4.53455">
        <ele>426</ele>
        <time>2015-05-27T15:11:28Z</time>
      </trkpt>
      <trkpt lat="45.85674" lon="4.53456">
        <ele>416</ele>
        <time>2015-05-27T15:11:29Z</time>
      </trkpt>
      <trkpt lat="45.85683" lon="4.53457">
        <ele>412</ele>
        <time>2015-05-27T15:11:30Z</time>
      </trkpt>
      <trkpt lat="45.85693" lon="4.53457">
        <ele>416</ele>
        <time>2015-05-27T15:11:31Z</time>
      </trkpt>
      <trkpt lat="45.85703" lon="4.53457">
        <ele>417</ele>
        <time>2015-05-27T15:11:32Z</time>
      </trkpt>
      <trkpt lat="45.85712" lon="4.53456">
        <ele>419</ele>
        <time>2015-05-27T15:11:33Z</time>
      </trkpt>
      <trkpt lat="45.85722" lon="4.53456">
        <ele>428</ele>
        <time>2015-05-27T15:11:34Z</time>
      </trkpt>
      <trkpt lat="45.85731" lon="4.53455">
        <ele>422</ele>
        <time>2015-05-27T15:11:35Z</time>
      </trkpt>
      <trkpt lat="45.85742" lon="4.53454">
        <ele>435</ele>
        <time>2015-05-27T15:11:36Z</time>
      </trkpt>
      <trkpt lat="45.85751" lon="4.53454">
        <ele>435</ele>
        <time>2015-05-27T15:11:37Z</time>
      </trkpt>
      <trkpt lat="45.85762" lon="4.53454">
        <ele>431</ele>
        <time>2015-05-27T15:11:38Z</time>
      </trkpt>
      <trkpt lat="45.85772" lon="4.53454">
        <ele>429</ele>
        <time>2015-05-27T15:11:39Z</time>
      </trkpt>
      <trkpt lat="45.85782" lon="4.53453">
        <ele>421</ele>
        <time>2015-05-27T15:11:40Z</time>
      </trkpt>
      <trkpt lat="45.85793" lon="4.53454">
        <ele>427</ele>
        <time>2015-05-27T15:11:41Z</time>
      </trkpt>
      <trkpt lat="45.85801" lon="4.53454">
        <ele>423</ele>
        <time>2015-05-27T15:11:42Z</time>
      </trkpt>
      <trkpt lat="45.85811" lon="4.53458">
        <ele>419</ele>
        <time>2015-05-27T15:11:43Z</time>
      </trkpt>
      <trkpt lat="45.85819" lon="4.53463">
        <ele>418</ele>
        <time>2015-05-27T15:11:44Z</time>
      </trkpt>
      <trkpt lat="45.85827" lon="4.53468">
        <ele>415</ele>
        <time>2015-05-27T15:11:45Z</time>
      </trkpt>
      <trkpt lat="45.85834" lon="4.53477">
        <ele>417</ele>
        <time>2015-05-27T15:11:46Z</time>
      </trkpt>
      <trkpt lat="45.8584" lon="4.53486">
        <ele>416</ele>
        <time>2015-05-27T15:11:47Z</time>
      </trkpt>
      <trkpt lat="45.85844" lon="4.53494">
        <ele>417</ele>
        <time>2015-05-27T15:11:48Z</time>
      </trkpt>
      <trkpt lat="45.85848" lon="4.53503">
        <ele>410</ele>
        <time>2015-05-27T15:11:49Z</time>
      </trkpt>
      <trkpt lat="45.85854" lon="4.53516">
        <ele>436</ele>
        <time>2015-05-27T15:11:51Z</time>
      </trkpt>
      <trkpt lat="45.85859" lon="4.53522">
        <ele>435</ele>
        <time>2015-05-27T15:11:52Z</time>
      </trkpt>
      <trkpt lat="45.85863" lon="4.53527">
        <ele>435</ele>
        <time>2015-05-27T15:11:53Z</time>
      </trkpt>
      <trkpt lat="45.85867" lon="4.53531">
        <ele>422</ele>
        <time>2015-05-27T15:11:54Z</time>
      </trkpt>
      <trkpt lat="45.85873" lon="4.5354">
        <ele>416</ele>
        <time>2015-05-27T15:11:56Z</time>
      </trkpt>
      <trkpt lat="45.85877" lon="4.53544">
        <ele>417</ele>
        <time>2015-05-27T15:11:57Z</time>
      </trkpt>
      <trkpt lat="45.85881" lon="4.53549">
        <ele>414</ele>
        <time>2015-05-27T15:11:58Z</time>
      </trkpt>
      <trkpt lat="45.85885" lon="4.53553">
        <ele>412</ele>
        <time>2015-05-27T15:11:59Z</time>
      </trkpt>
      <trkpt lat="45.85889" lon="4.53556">
        <ele>412</ele>
        <time>2015-05-27T15:12:00Z</time>
      </trkpt>
      <trkpt lat="45.85893" lon="4.5356">
        <ele>413</ele>
        <time>2015-05-27T15:12:01Z</time>
      </trkpt>
      <trkpt lat="45.85899" lon="4.53568">
        <ele>412</ele>
        <time>2015-05-27T15:12:03Z</time>
      </trkpt>
      <trkpt lat="45.85904" lon="4.53574">
        <ele>409</ele>
        <time>2015-05-27T15:12:05Z</time>
      </trkpt>
      <trkpt lat="45.85911" lon="4.53582">
        <ele>413</ele>
        <time>2015-05-27T15:12:07Z</time>
      </trkpt>
      <trkpt lat="45.85918" lon="4.53589">
        <ele>425</ele>
        <time>2015-05-27T15:12:09Z</time>
      </trkpt>
      <trkpt lat="45.85921" lon="4.53593">
        <ele>438</ele>
        <time>2015-05-27T15:12:10Z</time>
      </trkpt>
      <trkpt lat="45.85928" lon="4.53601">
        <ele>466</ele>
        <time>2015-05-27T15:12:12Z</time>
      </trkpt>
      <trkpt lat="45.85934" lon="4.53605">
        <ele>480</ele>
        <time>2015-05-27T15:12:14Z</time>
      </trkpt>
      <trkpt lat="45.85939" lon="4.53614">
        <ele>486</ele>
        <time>2015-05-27T15:12:16Z</time>
      </trkpt>
      <trkpt lat="45.85946" lon="4.53622">
        <ele>501</ele>
        <time>2015-05-27T15:12:18Z</time>
      </trkpt>
      <trkpt lat="45.85949" lon="4.5363">
        <ele>504</ele>
        <time>2015-05-27T15:12:21Z</time>
      </trkpt>
      <trkpt lat="45.85957" lon="4.53638">
        <ele>495</ele>
        <time>2015-05-27T15:12:23Z</time>
      </trkpt>
      <trkpt lat="45.85961" lon="4.53642">
        <ele>487</ele>
        <time>2015-05-27T15:12:24Z</time>
      </trkpt>
      <trkpt lat="45.85965" lon="4.53647">
        <ele>503</ele>
        <time>2015-05-27T15:12:25Z</time>
      </trkpt>
      <trkpt lat="45.85968" lon="4.53652">
        <ele>505</ele>
        <time>2015-05-27T15:12:26Z</time>
      </trkpt>
      <trkpt lat="45.85972" lon="4.53661">
        <ele>505</ele>
        <time>2015-05-27T15:12:28Z</time>
      </trkpt>
      <trkpt lat="45.85976" lon="4.53672">
        <ele>484</ele>
        <time>2015-05-27T15:12:30Z</time>
      </trkpt>
      <trkpt lat="45.85979" lon="4.53683">
        <ele>473</ele>
        <time>2015-05-27T15:12:32Z</time>
      </trkpt>
      <trkpt lat="45.85982" lon="4.53694">
        <ele>456</ele>
        <time>2015-05-27T15:12:34Z</time>
      </trkpt>
      <trkpt lat="45.85984" lon="4.53705">
        <ele>459</ele>
        <time>2015-05-27T15:12:36Z</time>
      </trkpt>
      <trkpt lat="45.85986" lon="4.53717">
        <ele>453</ele>
        <time>2015-05-27T15:12:38Z</time>
      </trkpt>
      <trkpt lat="45.85987" lon="4.53729">
        <ele>463</ele>
        <time>2015-05-27T15:12:40Z</time>
      </trkpt>
      <trkpt lat="45.85988" lon="4.5374">
        <ele>456</ele>
        <time>2015-05-27T15:12:42Z</time>
      </trkpt>
      <trkpt lat="45.85989" lon="4.53752">
        <ele>460</ele>
        <time>2015-05-27T15:12:44Z</time>
      </trkpt>
      <trkpt lat="45.85992" lon="4.53763">
        <ele>444</ele>
        <time>2015-05-27T15:12:46Z</time>
      </trkpt>
      <trkpt lat="45.85996" lon="4.53774">
        <ele>445</ele>
        <time>2015-05-27T15:12:48Z</time>
      </trkpt>
      <trkpt lat="45.86" lon="4.53783">
        <ele>445</ele>
        <time>2015-05-27T15:12:49Z</time>
      </trkpt>
      <trkpt lat="45.86002" lon="4.53789">
        <ele>442</ele>
        <time>2015-05-27T15:12:50Z</time>
      </trkpt>
      <trkpt lat="45.86004" lon="4.53796">
        <ele>439</ele>
        <time>2015-05-27T15:12:51Z</time>
      </trkpt>
      <trkpt lat="45.86006" lon="4.53808">
        <ele>425</ele>
        <time>2015-05-27T15:12:53Z</time>
      </trkpt>
      <trkpt lat="45.86007" lon="4.53818">
        <ele>420</ele>
        <time>2015-05-27T15:12:55Z</time>
      </trkpt>
      <trkpt lat="45.86008" lon="4.53825">
        <ele>420</ele>
        <time>2015-05-27T15:12:56Z</time>
      </trkpt>
      <trkpt lat="45.86012" lon="4.53833">
        <ele>439</ele>
        <time>2015-05-27T15:12:57Z</time>
      </trkpt>
      <trkpt lat="45.86013" lon="4.5384">
        <ele>438</ele>
        <time>2015-05-27T15:12:58Z</time>
      </trkpt>
      <trkpt lat="45.86015" lon="4.53848">
        <ele>414</ele>
        <time>2015-05-27T15:12:59Z</time>
      </trkpt>
      <trkpt lat="45.86017" lon="4.53855">
        <ele>391</ele>
        <time>2015-05-27T15:13:00Z</time>
      </trkpt>
      <trkpt lat="45.86017" lon="4.53862">
        <ele>465</ele>
        <time>2015-05-27T15:13:01Z</time>
      </trkpt>
      <trkpt lat="45.86015" lon="4.53869">
        <ele>462</ele>
        <time>2015-05-27T15:13:02Z</time>
      </trkpt>
      <trkpt lat="45.86013" lon="4.53876">
        <ele>455</ele>
        <time>2015-05-27T15:13:03Z</time>
      </trkpt>
      <trkpt lat="45.86017" lon="4.53884">
        <ele>453</ele>
        <time>2015-05-27T15:13:04Z</time>
      </trkpt>
      <trkpt lat="45.86019" lon="4.53892">
        <ele>452</ele>
        <time>2015-05-27T15:13:05Z</time>
      </trkpt>
      <trkpt lat="45.86021" lon="4.53899">
        <ele>455</ele>
        <time>2015-05-27T15:13:06Z</time>
      </trkpt>
      <trkpt lat="45.86024" lon="4.53907">
        <ele>480</ele>
        <time>2015-05-27T15:13:07Z</time>
      </trkpt>
      <trkpt lat="45.86027" lon="4.53914">
        <ele>471</ele>
        <time>2015-05-27T15:13:08Z</time>
      </trkpt>
      <trkpt lat="45.86028" lon="4.53927">
        <ele>477</ele>
        <time>2015-05-27T15:13:11Z</time>
      </trkpt>
      <trkpt lat="45.8603" lon="4.53934">
        <ele>474</ele>
        <time>2015-05-27T15:13:12Z</time>
      </trkpt>
      <trkpt lat="45.86034" lon="4.53943">
        <ele>469</ele>
        <time>2015-05-27T15:13:13Z</time>
      </trkpt>
      <trkpt lat="45.86035" lon="4.53951">
        <ele>467</ele>
        <time>2015-05-27T15:13:14Z</time>
      </trkpt>
      <trkpt lat="45.86036" lon="4.5396">
        <ele>465</ele>
        <time>2015-05-27T15:13:15Z</time>
      </trkpt>
      <trkpt lat="45.86037" lon="4.53967">
        <ele>464</ele>
        <time>2015-05-27T15:13:16Z</time>
      </trkpt>
      <trkpt lat="45.86039" lon="4.53975">
        <ele>464</ele>
        <time>2015-05-27T15:13:17Z</time>
      </trkpt>
      <trkpt lat="45.86044" lon="4.5399">
        <ele>445</ele>
        <time>2015-05-27T15:13:18Z</time>
      </trkpt>
      <trkpt lat="45.86046" lon="4.54">
        <ele>482</ele>
        <time>2015-05-27T15:13:19Z</time>
      </trkpt>
      <trkpt lat="45.86052" lon="4.54008">
        <ele>476</ele>
        <time>2015-05-27T15:13:20Z</time>
      </trkpt>
      <trkpt lat="45.86051" lon="4.54021">
        <ele>473</ele>
        <time>2015-05-27T15:13:22Z</time>
      </trkpt>
      <trkpt lat="45.86053" lon="4.54028">
        <ele>467</ele>
        <time>2015-05-27T15:13:23Z</time>
      </trkpt>
      <trkpt lat="45.86054" lon="4.54037">
        <ele>472</ele>
        <time>2015-05-27T15:13:24Z</time>
      </trkpt>
      <trkpt lat="45.86054" lon="4.54045">
        <ele>472</ele>
        <time>2015-05-27T15:13:25Z</time>
      </trkpt>
      <trkpt lat="45.86066" lon="4.54057">
        <ele>474</ele>
        <time>2015-05-27T15:13:26Z</time>
      </trkpt>
      <trkpt lat="45.8607" lon="4.54067">
        <ele>486</ele>
        <time>2015-05-27T15:13:27Z</time>
      </trkpt>
      <trkpt lat="45.86073" lon="4.54077">
        <ele>480</ele>
        <time>2015-05-27T15:13:28Z</time>
      </trkpt>
      <trkpt lat="45.86075" lon="4.54087">
        <ele>479</ele>
        <time>2015-05-27T15:13:29Z</time>
      </trkpt>
      <trkpt lat="45.86079" lon="4.54098">
        <ele>470</ele>
        <time>2015-05-27T15:13:30Z</time>
      </trkpt>
      <trkpt lat="45.86082" lon="4.54108">
        <ele>470</ele>
        <time>2015-05-27T15:13:31Z</time>
      </trkpt>
      <trkpt lat="45.86085" lon="4.54118">
        <ele>462</ele>
        <time>2015-05-27T15:13:32Z</time>
      </trkpt>
      <trkpt lat="45.86086" lon="4.54127">
        <ele>463</ele>
        <time>2015-05-27T15:13:33Z</time>
      </trkpt>
      <trkpt lat="45.86089" lon="4.54138">
        <ele>495</ele>
        <time>2015-05-27T15:13:34Z</time>
      </trkpt>
      <trkpt lat="45.86094" lon="4.5415">
        <ele>487</ele>
        <time>2015-05-27T15:13:35Z</time>
      </trkpt>
      <trkpt lat="45.86092" lon="4.54159">
        <ele>484</ele>
        <time>2015-05-27T15:13:36Z</time>
      </trkpt>
      <trkpt lat="45.86087" lon="4.54172">
        <ele>487</ele>
        <time>2015-05-27T15:13:37Z</time>
      </trkpt>
      <trkpt lat="45.86089" lon="4.54181">
        <ele>486</ele>
        <time>2015-05-27T15:13:38Z</time>
      </trkpt>
      <trkpt lat="45.86092" lon="4.54194">
        <ele>468</ele>
        <time>2015-05-27T15:13:39Z</time>
      </trkpt>
      <trkpt lat="45.86091" lon="4.54207">
        <ele>458</ele>
        <time>2015-05-27T15:13:40Z</time>
      </trkpt>
      <trkpt lat="45.8609" lon="4.54219">
        <ele>406</ele>
        <time>2015-05-27T15:13:41Z</time>
      </trkpt>
      <trkpt lat="45.86086" lon="4.54232">
        <ele>386</ele>
        <time>2015-05-27T15:13:42Z</time>
      </trkpt>
      <trkpt lat="45.86087" lon="4.54245">
        <ele>366</ele>
        <time>2015-05-27T15:13:43Z</time>
      </trkpt>
      <trkpt lat="45.86091" lon="4.54257">
        <ele>351</ele>
        <time>2015-05-27T15:13:44Z</time>
      </trkpt>
      <trkpt lat="45.86097" lon="4.54267">
        <ele>341</ele>
        <time>2015-05-27T15:13:45Z</time>
      </trkpt>
      <trkpt lat="45.86102" lon="4.54276">
        <ele>337</ele>
        <time>2015-05-27T15:13:46Z</time>
      </trkpt>
      <trkpt lat="45.86108" lon="4.54285">
        <ele>337</ele>
        <time>2015-05-27T15:13:47Z</time>
      </trkpt>
      <trkpt lat="45.86117" lon="4.54292">
        <ele>333</ele>
        <time>2015-05-27T15:13:48Z</time>
      </trkpt>
      <trkpt lat="45.86124" lon="4.543">
        <ele>329</ele>
        <time>2015-05-27T15:13:49Z</time>
      </trkpt>
      <trkpt lat="45.86132" lon="4.54308">
        <ele>329</ele>
        <time>2015-05-27T15:13:50Z</time>
      </trkpt>
      <trkpt lat="45.8614" lon="4.54316">
        <ele>327</ele>
        <time>2015-05-27T15:13:51Z</time>
      </trkpt>
      <trkpt lat="45.86147" lon="4.54324">
        <ele>325</ele>
        <time>2015-05-27T15:13:52Z</time>
      </trkpt>
      <trkpt lat="45.86154" lon="4.54332">
        <ele>323</ele>
        <time>2015-05-27T15:13:53Z</time>
      </trkpt>
      <trkpt lat="45.86161" lon="4.5434">
        <ele>322</ele>
        <time>2015-05-27T15:13:54Z</time>
      </trkpt>
      <trkpt lat="45.86168" lon="4.54348">
        <ele>322</ele>
        <time>2015-05-27T15:13:55Z</time>
      </trkpt>
      <trkpt lat="45.86176" lon="4.54354">
        <ele>319</ele>
        <time>2015-05-27T15:13:56Z</time>
      </trkpt>
      <trkpt lat="45.86184" lon="4.54363">
        <ele>322</ele>
        <time>2015-05-27T15:13:57Z</time>
      </trkpt>
      <trkpt lat="45.86193" lon="4.5437">
        <ele>322</ele>
        <time>2015-05-27T15:13:58Z</time>
      </trkpt>
      <trkpt lat="45.86202" lon="4.54377">
        <ele>321</ele>
        <time>2015-05-27T15:13:59Z</time>
      </trkpt>
      <trkpt lat="45.86218" lon="4.5439">
        <ele>320</ele>
        <time>2015-05-27T15:14:01Z</time>
      </trkpt>
      <trkpt lat="45.86227" lon="4.54395">
        <ele>319</ele>
        <time>2015-05-27T15:14:02Z</time>
      </trkpt>
      <trkpt lat="45.86237" lon="4.54403">
        <ele>318</ele>
        <time>2015-05-27T15:14:03Z</time>
      </trkpt>
      <trkpt lat="45.86247" lon="4.5441">
        <ele>317</ele>
        <time>2015-05-27T15:14:04Z</time>
      </trkpt>
      <trkpt lat="45.86257" lon="4.54417">
        <ele>317</ele>
        <time>2015-05-27T15:14:05Z</time>
      </trkpt>
      <trkpt lat="45.86268" lon="4.54423">
        <ele>316</ele>
        <time>2015-05-27T15:14:06Z</time>
      </trkpt>
      <trkpt lat="45.86278" lon="4.54429">
        <ele>316</ele>
        <time>2015-05-27T15:14:07Z</time>
      </trkpt>
      <trkpt lat="45.86289" lon="4.54434">
        <ele>316</ele>
        <time>2015-05-27T15:14:08Z</time>
      </trkpt>
      <trkpt lat="45.86301" lon="4.54439">
        <ele>315</ele>
        <time>2015-05-27T15:14:09Z</time>
      </trkpt>
      <trkpt lat="45.86312" lon="4.54442">
        <ele>315</ele>
        <time>2015-05-27T15:14:10Z</time>
      </trkpt>
      <trkpt lat="45.86323" lon="4.54446">
        <ele>314</ele>
        <time>2015-05-27T15:14:11Z</time>
      </trkpt>
      <trkpt lat="45.86335" lon="4.54449">
        <ele>314</ele>
        <time>2015-05-27T15:14:12Z</time>
      </trkpt>
      <trkpt lat="45.86347" lon="4.54452">
        <ele>314</ele>
        <time>2015-05-27T15:14:13Z</time>
      </trkpt>
      <trkpt lat="45.86358" lon="4.54455">
        <ele>313</ele>
        <time>2015-05-27T15:14:14Z</time>
      </trkpt>
      <trkpt lat="45.86369" lon="4.54457">
        <ele>313</ele>
        <time>2015-05-27T15:14:15Z</time>
      </trkpt>
      <trkpt lat="45.8638" lon="4.54461">
        <ele>312</ele>
        <time>2015-05-27T15:14:16Z</time>
      </trkpt>
      <trkpt lat="45.86392" lon="4.54463">
        <ele>313</ele>
        <time>2015-05-27T15:14:17Z</time>
      </trkpt>
      <trkpt lat="45.86404" lon="4.54465">
        <ele>313</ele>
        <time>2015-05-27T15:14:18Z</time>
      </trkpt>
      <trkpt lat="45.86414" lon="4.54467">
        <ele>313</ele>
        <time>2015-05-27T15:14:19Z</time>
      </trkpt>
      <trkpt lat="45.86423" lon="4.54469">
        <ele>314</ele>
        <time>2015-05-27T15:14:20Z</time>
      </trkpt>
      <trkpt lat="45.86432" lon="4.54471">
        <ele>314</ele>
        <time>2015-05-27T15:14:21Z</time>
      </trkpt>
      <trkpt lat="45.86441" lon="4.54472">
        <ele>314</ele>
        <time>2015-05-27T15:14:22Z</time>
      </trkpt>
      <trkpt lat="45.86448" lon="4.54472">
        <ele>315</ele>
        <time>2015-05-27T15:14:23Z</time>
      </trkpt>
      <trkpt lat="45.86456" lon="4.54473">
        <ele>315</ele>
        <time>2015-05-27T15:14:24Z</time>
      </trkpt>
      <trkpt lat="45.86463" lon="4.54474">
        <ele>315</ele>
        <time>2015-05-27T15:14:25Z</time>
      </trkpt>
      <trkpt lat="45.86469" lon="4.54476">
        <ele>311</ele>
        <time>2015-05-27T15:14:27Z</time>
      </trkpt>
      <trkpt lat="45.86478" lon="4.54478">
        <ele>307</ele>
        <time>2015-05-27T15:14:29Z</time>
      </trkpt>
      <trkpt lat="45.86486" lon="4.54481">
        <ele>306</ele>
        <time>2015-05-27T15:14:32Z</time>
      </trkpt>
      <trkpt lat="45.86492" lon="4.54484">
        <ele>307</ele>
        <time>2015-05-27T15:14:34Z</time>
      </trkpt>
      <trkpt lat="45.86499" lon="4.54487">
        <ele>306</ele>
        <time>2015-05-27T15:14:36Z</time>
      </trkpt>
      <trkpt lat="45.86505" lon="4.54489">
        <ele>306</ele>
        <time>2015-05-27T15:14:38Z</time>
      </trkpt>
      <trkpt lat="45.86512" lon="4.54492">
        <ele>306</ele>
        <time>2015-05-27T15:14:40Z</time>
      </trkpt>
      <trkpt lat="45.86518" lon="4.54494">
        <ele>307</ele>
        <time>2015-05-27T15:14:42Z</time>
      </trkpt>
      <trkpt lat="45.86524" lon="4.54496">
        <ele>307</ele>
        <time>2015-05-27T15:14:44Z</time>
      </trkpt>
      <trkpt lat="45.8653" lon="4.54499">
        <ele>307</ele>
        <time>2015-05-27T15:14:46Z</time>
      </trkpt>
      <trkpt lat="45.86536" lon="4.54502">
        <ele>308</ele>
        <time>2015-05-27T15:14:48Z</time>
      </trkpt>
      <trkpt lat="45.86543" lon="4.54505">
        <ele>309</ele>
        <time>2015-05-27T15:14:50Z</time>
      </trkpt>
      <trkpt lat="45.86549" lon="4.54507">
        <ele>310</ele>
        <time>2015-05-27T15:14:52Z</time>
      </trkpt>
      <trkpt lat="45.86555" lon="4.54511">
        <ele>310</ele>
        <time>2015-05-27T15:14:54Z</time>
      </trkpt>
      <trkpt lat="45.86561" lon="4.54514">
        <ele>310</ele>
        <time>2015-05-27T15:14:56Z</time>
      </trkpt>
      <trkpt lat="45.86566" lon="4.54517">
        <ele>310</ele>
        <time>2015-05-27T15:14:58Z</time>
      </trkpt>
      <trkpt lat="45.86572" lon="4.54521">
        <ele>309</ele>
        <time>2015-05-27T15:15:00Z</time>
      </trkpt>
      <trkpt lat="45.86577" lon="4.54525">
        <ele>309</ele>
        <time>2015-05-27T15:15:02Z</time>
      </trkpt>
      <trkpt lat="45.86583" lon="4.54528">
        <ele>310</ele>
        <time>2015-05-27T15:15:04Z</time>
      </trkpt>
      <trkpt lat="45.86588" lon="4.54532">
        <ele>310</ele>
        <time>2015-05-27T15:15:06Z</time>
      </trkpt>
      <trkpt lat="45.86593" lon="4.54536">
        <ele>310</ele>
        <time>2015-05-27T15:15:08Z</time>
      </trkpt>
      <trkpt lat="45.86598" lon="4.5454">
        <ele>312</ele>
        <time>2015-05-27T15:15:10Z</time>
      </trkpt>
      <trkpt lat="45.86602" lon="4.54544">
        <ele>312</ele>
        <time>2015-05-27T15:15:12Z</time>
      </trkpt>
      <trkpt lat="45.86607" lon="4.54549">
        <ele>312</ele>
        <time>2015-05-27T15:15:15Z</time>
      </trkpt>
      <trkpt lat="45.86614" lon="4.54554">
        <ele>313</ele>
        <time>2015-05-27T15:15:18Z</time>
      </trkpt>
      <trkpt lat="45.8662" lon="4.54557">
        <ele>316</ele>
        <time>2015-05-27T15:15:21Z</time>
      </trkpt>
      <trkpt lat="45.86624" lon="4.5456">
        <ele>316</ele>
        <time>2015-05-27T15:15:23Z</time>
      </trkpt>
      <trkpt lat="45.86628" lon="4.54564">
        <ele>316</ele>
        <time>2015-05-27T15:15:25Z</time>
      </trkpt>
      <trkpt lat="45.86632" lon="4.54568">
        <ele>317</ele>
        <time>2015-05-27T15:15:27Z</time>
      </trkpt>
      <trkpt lat="45.86637" lon="4.54572">
        <ele>317</ele>
        <time>2015-05-27T15:15:29Z</time>
      </trkpt>
      <trkpt lat="45.86641" lon="4.54575">
        <ele>318</ele>
        <time>2015-05-27T15:15:31Z</time>
      </trkpt>
      <trkpt lat="45.86646" lon="4.54579">
        <ele>318</ele>
        <time>2015-05-27T15:15:33Z</time>
      </trkpt>
      <trkpt lat="45.86651" lon="4.54582">
        <ele>319</ele>
        <time>2015-05-27T15:15:35Z</time>
      </trkpt>
      <trkpt lat="45.86655" lon="4.54586">
        <ele>319</ele>
        <time>2015-05-27T15:15:37Z</time>
      </trkpt>
      <trkpt lat="45.8666" lon="4.5459">
        <ele>320</ele>
        <time>2015-05-27T15:15:39Z</time>
      </trkpt>
      <trkpt lat="45.86665" lon="4.54593">
        <ele>321</ele>
        <time>2015-05-27T15:15:41Z</time>
      </trkpt>
      <trkpt lat="45.8667" lon="4.54597">
        <ele>321</ele>
        <time>2015-05-27T15:15:43Z</time>
      </trkpt>
      <trkpt lat="45.86675" lon="4.54602">
        <ele>320</ele>
        <time>2015-05-27T15:15:45Z</time>
      </trkpt>
      <trkpt lat="45.8668" lon="4.54606">
        <ele>316</ele>
        <time>2015-05-27T15:15:47Z</time>
      </trkpt>
      <trkpt lat="45.86684" lon="4.5461">
        <ele>317</ele>
        <time>2015-05-27T15:15:49Z</time>
      </trkpt>
      <trkpt lat="45.86689" lon="4.54614">
        <ele>317</ele>
        <time>2015-05-27T15:15:51Z</time>
      </trkpt>
      <trkpt lat="45.86692" lon="4.54619">
        <ele>317</ele>
        <time>2015-05-27T15:15:53Z</time>
      </trkpt>
      <trkpt lat="45.86697" lon="4.54626">
        <ele>317</ele>
        <time>2015-05-27T15:15:56Z</time>
      </trkpt>
      <trkpt lat="45.86701" lon="4.54633">
        <ele>319</ele>
        <time>2015-05-27T15:15:59Z</time>
      </trkpt>
      <trkpt lat="45.86704" lon="4.54638">
        <ele>320</ele>
        <time>2015-05-27T15:16:01Z</time>
      </trkpt>
      <trkpt lat="45.86708" lon="4.54643">
        <ele>318</ele>
        <time>2015-05-27T15:16:03Z</time>
      </trkpt>
      <trkpt lat="45.86713" lon="4.54647">
        <ele>319</ele>
        <time>2015-05-27T15:16:05Z</time>
      </trkpt>
      <trkpt lat="45.86718" lon="4.54652">
        <ele>319</ele>
        <time>2015-05-27T15:16:07Z</time>
      </trkpt>
      <trkpt lat="45.86724" lon="4.54657">
        <ele>320</ele>
        <time>2015-05-27T15:16:09Z</time>
      </trkpt>
      <trkpt lat="45.86729" lon="4.54661">
        <ele>320</ele>
        <time>2015-05-27T15:16:11Z</time>
      </trkpt>
      <trkpt lat="45.86735" lon="4.54667">
        <ele>321</ele>
        <time>2015-05-27T15:16:13Z</time>
      </trkpt>
      <trkpt lat="45.86741" lon="4.54672">
        <ele>322</ele>
        <time>2015-05-27T15:16:15Z</time>
      </trkpt>
      <trkpt lat="45.86744" lon="4.54676">
        <ele>322</ele>
        <time>2015-05-27T15:16:16Z</time>
      </trkpt>
      <trkpt lat="45.8675" lon="4.54685">
        <ele>322</ele>
        <time>2015-05-27T15:16:18Z</time>
      </trkpt>
      <trkpt lat="45.86757" lon="4.54693">
        <ele>322</ele>
        <time>2015-05-27T15:16:20Z</time>
      </trkpt>
      <trkpt lat="45.86763" lon="4.54702">
        <ele>321</ele>
        <time>2015-05-27T15:16:22Z</time>
      </trkpt>
      <trkpt lat="45.86769" lon="4.54709">
        <ele>321</ele>
        <time>2015-05-27T15:16:24Z</time>
      </trkpt>
      <trkpt lat="45.86775" lon="4.54718">
        <ele>321</ele>
        <time>2015-05-27T15:16:26Z</time>
      </trkpt>
      <trkpt lat="45.86781" lon="4.54725">
        <ele>321</ele>
        <time>2015-05-27T15:16:28Z</time>
      </trkpt>
      <trkpt lat="45.86788" lon="4.54732">
        <ele>323</ele>
        <time>2015-05-27T15:16:30Z</time>
      </trkpt>
      <trkpt lat="45.86793" lon="4.54739">
        <ele>327</ele>
        <time>2015-05-27T15:16:32Z</time>
      </trkpt>
      <trkpt lat="45.86797" lon="4.54746">
        <ele>328</ele>
        <time>2015-05-27T15:16:34Z</time>
      </trkpt>
      <trkpt lat="45.86802" lon="4.54753">
        <ele>327</ele>
        <time>2015-05-27T15:16:36Z</time>
      </trkpt>
      <trkpt lat="45.86808" lon="4.54761">
        <ele>326</ele>
        <time>2015-05-27T15:16:38Z</time>
      </trkpt>
      <trkpt lat="45.86814" lon="4.54768">
        <ele>325</ele>
        <time>2015-05-27T15:16:40Z</time>
      </trkpt>
      <trkpt lat="45.8682" lon="4.54776">
        <ele>324</ele>
        <time>2015-05-27T15:16:42Z</time>
      </trkpt>
      <trkpt lat="45.86824" lon="4.5478">
        <ele>324</ele>
        <time>2015-05-27T15:16:43Z</time>
      </trkpt>
      <trkpt lat="45.86828" lon="4.54784">
        <ele>324</ele>
        <time>2015-05-27T15:16:44Z</time>
      </trkpt>
      <trkpt lat="45.86835" lon="4.54793">
        <ele>323</ele>
        <time>2015-05-27T15:16:46Z</time>
      </trkpt>
      <trkpt lat="45.86838" lon="4.54797">
        <ele>323</ele>
        <time>2015-05-27T15:16:47Z</time>
      </trkpt>
      <trkpt lat="45.86842" lon="4.54802">
        <ele>323</ele>
        <time>2015-05-27T15:16:48Z</time>
      </trkpt>
      <trkpt lat="45.86845" lon="4.54806">
        <ele>322</ele>
        <time>2015-05-27T15:16:49Z</time>
      </trkpt>
      <trkpt lat="45.86852" lon="4.54814">
        <ele>323</ele>
        <time>2015-05-27T15:16:51Z</time>
      </trkpt>
      <trkpt lat="45.86859" lon="4.54822">
        <ele>324</ele>
        <time>2015-05-27T15:16:53Z</time>
      </trkpt>
      <trkpt lat="45.86865" lon="4.54829">
        <ele>325</ele>
        <time>2015-05-27T15:16:55Z</time>
      </trkpt>
      <trkpt lat="45.86871" lon="4.54836">
        <ele>325</ele>
        <time>2015-05-27T15:16:57Z</time>
      </trkpt>
      <trkpt lat="45.86877" lon="4.54843">
        <ele>326</ele>
        <time>2015-05-27T15:16:59Z</time>
      </trkpt>
      <trkpt lat="45.86881" lon="4.54849">
        <ele>318</ele>
        <time>2015-05-27T15:17:00Z</time>
      </trkpt>
      <trkpt lat="45.86888" lon="4.54857">
        <ele>321</ele>
        <time>2015-05-27T15:17:02Z</time>
      </trkpt>
      <trkpt lat="45.86895" lon="4.54865">
        <ele>322</ele>
        <time>2015-05-27T15:17:04Z</time>
      </trkpt>
      <trkpt lat="45.86902" lon="4.54872">
        <ele>322</ele>
        <time>2015-05-27T15:17:06Z</time>
      </trkpt>
      <trkpt lat="45.86908" lon="4.5488">
        <ele>322</ele>
        <time>2015-05-27T15:17:08Z</time>
      </trkpt>
      <trkpt lat="45.86915" lon="4.54888">
        <ele>323</ele>
        <time>2015-05-27T15:17:10Z</time>
      </trkpt>
      <trkpt lat="45.86921" lon="4.54895">
        <ele>323</ele>
        <time>2015-05-27T15:17:12Z</time>
      </trkpt>
      <trkpt lat="45.86927" lon="4.54902">
        <ele>324</ele>
        <time>2015-05-27T15:17:14Z</time>
      </trkpt>
      <trkpt lat="45.86933" lon="4.54909">
        <ele>326</ele>
        <time>2015-05-27T15:17:16Z</time>
      </trkpt>
      <trkpt lat="45.8694" lon="4.54915">
        <ele>327</ele>
        <time>2015-05-27T15:17:18Z</time>
      </trkpt>
      <trkpt lat="45.86945" lon="4.54921">
        <ele>328</ele>
        <time>2015-05-27T15:17:20Z</time>
      </trkpt>
      <trkpt lat="45.86951" lon="4.54927">
        <ele>329</ele>
        <time>2015-05-27T15:17:22Z</time>
      </trkpt>
      <trkpt lat="45.86957" lon="4.54934">
        <ele>329</ele>
        <time>2015-05-27T15:17:24Z</time>
      </trkpt>
      <trkpt lat="45.86963" lon="4.54941">
        <ele>329</ele>
        <time>2015-05-27T15:17:26Z</time>
      </trkpt>
      <trkpt lat="45.86968" lon="4.54948">
        <ele>329</ele>
        <time>2015-05-27T15:17:28Z</time>
      </trkpt>
      <trkpt lat="45.86974" lon="4.54955">
        <ele>328</ele>
        <time>2015-05-27T15:17:30Z</time>
      </trkpt>
      <trkpt lat="45.8698" lon="4.54962">
        <ele>328</ele>
        <time>2015-05-27T15:17:32Z</time>
      </trkpt>
      <trkpt lat="45.86986" lon="4.5497">
        <ele>328</ele>
        <time>2015-05-27T15:17:34Z</time>
      </trkpt>
      <trkpt lat="45.86992" lon="4.54977">
        <ele>327</ele>
        <time>2015-05-27T15:17:36Z</time>
      </trkpt>
      <trkpt lat="45.86997" lon="4.54984">
        <ele>327</ele>
        <time>2015-05-27T15:17:38Z</time>
      </trkpt>
      <trkpt lat="45.87003" lon="4.54991">
        <ele>328</ele>
        <time>2015-05-27T15:17:40Z</time>
      </trkpt>
      <trkpt lat="45.87009" lon="4.54999">
        <ele>328</ele>
        <time>2015-05-27T15:17:42Z</time>
      </trkpt>
      <trkpt lat="45.87014" lon="4.55006">
        <ele>328</ele>
        <time>2015-05-27T15:17:44Z</time>
      </trkpt>
      <trkpt lat="45.87019" lon="4.55013">
        <ele>329</ele>
        <time>2015-05-27T15:17:46Z</time>
      </trkpt>
      <trkpt lat="45.87025" lon="4.5502">
        <ele>329</ele>
        <time>2015-05-27T15:17:48Z</time>
      </trkpt>
      <trkpt lat="45.87031" lon="4.55027">
        <ele>330</ele>
        <time>2015-05-27T15:17:50Z</time>
      </trkpt>
      <trkpt lat="45.87036" lon="4.55034">
        <ele>330</ele>
        <time>2015-05-27T15:17:52Z</time>
      </trkpt>
      <trkpt lat="45.87042" lon="4.55041">
        <ele>330</ele>
        <time>2015-05-27T15:17:54Z</time>
      </trkpt>
      <trkpt lat="45.87047" lon="4.55048">
        <ele>330</ele>
        <time>2015-05-27T15:17:56Z</time>
      </trkpt>
      <trkpt lat="45.87052" lon="4.55055">
        <ele>330</ele>
        <time>2015-05-27T15:17:58Z</time>
      </trkpt>
      <trkpt lat="45.87058" lon="4.55062">
        <ele>331</ele>
        <time>2015-05-27T15:18:00Z</time>
      </trkpt>
      <trkpt lat="45.87063" lon="4.55069">
        <ele>331</ele>
        <time>2015-05-27T15:18:02Z</time>
      </trkpt>
      <trkpt lat="45.87069" lon="4.55075">
        <ele>332</ele>
        <time>2015-05-27T15:18:04Z</time>
      </trkpt>
      <trkpt lat="45.87075" lon="4.55082">
        <ele>332</ele>
        <time>2015-05-27T15:18:06Z</time>
      </trkpt>
      <trkpt lat="45.8708" lon="4.55088">
        <ele>332</ele>
        <time>2015-05-27T15:18:08Z</time>
      </trkpt>
      <trkpt lat="45.87085" lon="4.55094">
        <ele>332</ele>
        <time>2015-05-27T15:18:10Z</time>
      </trkpt>
      <trkpt lat="45.87091" lon="4.551">
        <ele>332</ele>
        <time>2015-05-27T15:18:12Z</time>
      </trkpt>
      <trkpt lat="45.87096" lon="4.55107">
        <ele>332</ele>
        <time>2015-05-27T15:18:14Z</time>
      </trkpt>
      <trkpt lat="45.87101" lon="4.55114">
        <ele>332</ele>
        <time>2015-05-27T15:18:16Z</time>
      </trkpt>
      <trkpt lat="45.87106" lon="4.55121">
        <ele>332</ele>
        <time>2015-05-27T15:18:18Z</time>
      </trkpt>
      <trkpt lat="45.87112" lon="4.55129">
        <ele>333</ele>
        <time>2015-05-27T15:18:20Z</time>
      </trkpt>
      <trkpt lat="45.87118" lon="4.55136">
        <ele>333</ele>
        <time>2015-05-27T15:18:22Z</time>
      </trkpt>
      <trkpt lat="45.87123" lon="4.55143">
        <ele>333</ele>
        <time>2015-05-27T15:18:24Z</time>
      </trkpt>
      <trkpt lat="45.87129" lon="4.5515">
        <ele>334</ele>
        <time>2015-05-27T15:18:26Z</time>
      </trkpt>
      <trkpt lat="45.87135" lon="4.55157">
        <ele>333</ele>
        <time>2015-05-27T15:18:28Z</time>
      </trkpt>
      <trkpt lat="45.8714" lon="4.55163">
        <ele>333</ele>
        <time>2015-05-27T15:18:30Z</time>
      </trkpt>
      <trkpt lat="45.87145" lon="4.5517">
        <ele>332</ele>
        <time>2015-05-27T15:18:32Z</time>
      </trkpt>
      <trkpt lat="45.87148" lon="4.55174">
        <ele>331</ele>
        <time>2015-05-27T15:18:33Z</time>
      </trkpt>
      <trkpt lat="45.87153" lon="4.55179">
        <ele>330</ele>
        <time>2015-05-27T15:18:34Z</time>
      </trkpt>
      <trkpt lat="45.87157" lon="4.55183">
        <ele>330</ele>
        <time>2015-05-27T15:18:35Z</time>
      </trkpt>
      <trkpt lat="45.87162" lon="4.55187">
        <ele>330</ele>
        <time>2015-05-27T15:18:36Z</time>
      </trkpt>
      <trkpt lat="45.87166" lon="4.5519">
        <ele>330</ele>
        <time>2015-05-27T15:18:37Z</time>
      </trkpt>
      <trkpt lat="45.87169" lon="4.55194">
        <ele>329</ele>
        <time>2015-05-27T15:18:38Z</time>
      </trkpt>
      <trkpt lat="45.87175" lon="4.55202">
        <ele>333</ele>
        <time>2015-05-27T15:18:40Z</time>
      </trkpt>
      <trkpt lat="45.8718" lon="4.55209">
        <ele>334</ele>
        <time>2015-05-27T15:18:42Z</time>
      </trkpt>
      <trkpt lat="45.87185" lon="4.55217">
        <ele>333</ele>
        <time>2015-05-27T15:18:44Z</time>
      </trkpt>
      <trkpt lat="45.87191" lon="4.55224">
        <ele>334</ele>
        <time>2015-05-27T15:18:46Z</time>
      </trkpt>
      <trkpt lat="45.87196" lon="4.5523">
        <ele>334</ele>
        <time>2015-05-27T15:18:48Z</time>
      </trkpt>
      <trkpt lat="45.87202" lon="4.55236">
        <ele>333</ele>
        <time>2015-05-27T15:18:50Z</time>
      </trkpt>
      <trkpt lat="45.87208" lon="4.55242">
        <ele>334</ele>
        <time>2015-05-27T15:18:52Z</time>
      </trkpt>
      <trkpt lat="45.87215" lon="4.55247">
        <ele>335</ele>
        <time>2015-05-27T15:18:54Z</time>
      </trkpt>
      <trkpt lat="45.87221" lon="4.55252">
        <ele>336</ele>
        <time>2015-05-27T15:18:56Z</time>
      </trkpt>
      <trkpt lat="45.87228" lon="4.55256">
        <ele>336</ele>
        <time>2015-05-27T15:18:58Z</time>
      </trkpt>
      <trkpt lat="45.87235" lon="4.55261">
        <ele>337</ele>
        <time>2015-05-27T15:19:00Z</time>
      </trkpt>
      <trkpt lat="45.87241" lon="4.55265">
        <ele>338</ele>
        <time>2015-05-27T15:19:02Z</time>
      </trkpt>
      <trkpt lat="45.87248" lon="4.55269">
        <ele>340</ele>
        <time>2015-05-27T15:19:04Z</time>
      </trkpt>
      <trkpt lat="45.87254" lon="4.55273">
        <ele>341</ele>
        <time>2015-05-27T15:19:06Z</time>
      </trkpt>
      <trkpt lat="45.8726" lon="4.55277">
        <ele>342</ele>
        <time>2015-05-27T15:19:08Z</time>
      </trkpt>
      <trkpt lat="45.87267" lon="4.55282">
        <ele>343</ele>
        <time>2015-05-27T15:19:10Z</time>
      </trkpt>
      <trkpt lat="45.87273" lon="4.55286">
        <ele>343</ele>
        <time>2015-05-27T15:19:12Z</time>
      </trkpt>
      <trkpt lat="45.8728" lon="4.5529">
        <ele>344</ele>
        <time>2015-05-27T15:19:14Z</time>
      </trkpt>
      <trkpt lat="45.87286" lon="4.55295">
        <ele>345</ele>
        <time>2015-05-27T15:19:16Z</time>
      </trkpt>
      <trkpt lat="45.87293" lon="4.553">
        <ele>345</ele>
        <time>2015-05-27T15:19:18Z</time>
      </trkpt>
      <trkpt lat="45.87299" lon="4.55305">
        <ele>345</ele>
        <time>2015-05-27T15:19:20Z</time>
      </trkpt>
      <trkpt lat="45.87305" lon="4.55309">
        <ele>345</ele>
        <time>2015-05-27T15:19:22Z</time>
      </trkpt>
      <trkpt lat="45.87311" lon="4.55314">
        <ele>346</ele>
        <time>2015-05-27T15:19:24Z</time>
      </trkpt>
      <trkpt lat="45.87317" lon="4.55319">
        <ele>345</ele>
        <time>2015-05-27T15:19:26Z</time>
      </trkpt>
      <trkpt lat="45.87323" lon="4.55324">
        <ele>345</ele>
        <time>2015-05-27T15:19:28Z</time>
      </trkpt>
      <trkpt lat="45.8733" lon="4.55329">
        <ele>345</ele>
        <time>2015-05-27T15:19:30Z</time>
      </trkpt>
      <trkpt lat="45.87337" lon="4.55333">
        <ele>345</ele>
        <time>2015-05-27T15:19:32Z</time>
      </trkpt>
      <trkpt lat="45.87344" lon="4.55338">
        <ele>344</ele>
        <time>2015-05-27T15:19:34Z</time>
      </trkpt>
      <trkpt lat="45.87352" lon="4.55343">
        <ele>343</ele>
        <time>2015-05-27T15:19:36Z</time>
      </trkpt>
      <trkpt lat="45.87359" lon="4.55348">
        <ele>343</ele>
        <time>2015-05-27T15:19:38Z</time>
      </trkpt>
      <trkpt lat="45.87365" lon="4.55353">
        <ele>343</ele>
        <time>2015-05-27T15:19:40Z</time>
      </trkpt>
      <trkpt lat="45.87371" lon="4.55358">
        <ele>343</ele>
        <time>2015-05-27T15:19:42Z</time>
      </trkpt>
      <trkpt lat="45.87378" lon="4.55362">
        <ele>344</ele>
        <time>2015-05-27T15:19:44Z</time>
      </trkpt>
      <trkpt lat="45.87384" lon="4.55367">
        <ele>344</ele>
        <time>2015-05-27T15:19:46Z</time>
      </trkpt>
      <trkpt lat="45.8739" lon="4.55372">
        <ele>346</ele>
        <time>2015-05-27T15:19:48Z</time>
      </trkpt>
      <trkpt lat="45.87397" lon="4.55376">
        <ele>345</ele>
        <time>2015-05-27T15:19:50Z</time>
      </trkpt>
      <trkpt lat="45.87403" lon="4.55381">
        <ele>345</ele>
        <time>2015-05-27T15:19:52Z</time>
      </trkpt>
      <trkpt lat="45.87409" lon="4.55385">
        <ele>345</ele>
        <time>2015-05-27T15:19:54Z</time>
      </trkpt>
      <trkpt lat="45.87415" lon="4.5539">
        <ele>345</ele>
        <time>2015-05-27T15:19:56Z</time>
      </trkpt>
      <trkpt lat="45.87421" lon="4.55394">
        <ele>345</ele>
        <time>2015-05-27T15:19:58Z</time>
      </trkpt>
      <trkpt lat="45.87428" lon="4.55399">
        <ele>346</ele>
        <time>2015-05-27T15:20:00Z</time>
      </trkpt>
      <trkpt lat="45.87434" lon="4.55404">
        <ele>346</ele>
        <time>2015-05-27T15:20:02Z</time>
      </trkpt>
      <trkpt lat="45.8744" lon="4.55408">
        <ele>346</ele>
        <time>2015-05-27T15:20:04Z</time>
      </trkpt>
      <trkpt lat="45.87446" lon="4.55412">
        <ele>346</ele>
        <time>2015-05-27T15:20:06Z</time>
      </trkpt>
      <trkpt lat="45.87452" lon="4.55416">
        <ele>346</ele>
        <time>2015-05-27T15:20:08Z</time>
      </trkpt>
      <trkpt lat="45.87458" lon="4.55421">
        <ele>346</ele>
        <time>2015-05-27T15:20:10Z</time>
      </trkpt>
      <trkpt lat="45.87463" lon="4.55425">
        <ele>346</ele>
        <time>2015-05-27T15:20:12Z</time>
      </trkpt>
      <trkpt lat="45.87469" lon="4.5543">
        <ele>347</ele>
        <time>2015-05-27T15:20:14Z</time>
      </trkpt>
      <trkpt lat="45.87475" lon="4.55435">
        <ele>347</ele>
        <time>2015-05-27T15:20:16Z</time>
      </trkpt>
      <trkpt lat="45.87481" lon="4.55439">
        <ele>347</ele>
        <time>2015-05-27T15:20:18Z</time>
      </trkpt>
      <trkpt lat="45.87488" lon="4.55443">
        <ele>347</ele>
        <time>2015-05-27T15:20:20Z</time>
      </trkpt>
      <trkpt lat="45.87494" lon="4.55447">
        <ele>347</ele>
        <time>2015-05-27T15:20:22Z</time>
      </trkpt>
      <trkpt lat="45.875" lon="4.55451">
        <ele>348</ele>
        <time>2015-05-27T15:20:24Z</time>
      </trkpt>
      <trkpt lat="45.87507" lon="4.55455">
        <ele>348</ele>
        <time>2015-05-27T15:20:26Z</time>
      </trkpt>
      <trkpt lat="45.87513" lon="4.5546">
        <ele>348</ele>
        <time>2015-05-27T15:20:28Z</time>
      </trkpt>
      <trkpt lat="45.8752" lon="4.55465">
        <ele>348</ele>
        <time>2015-05-27T15:20:30Z</time>
      </trkpt>
      <trkpt lat="45.87526" lon="4.5547">
        <ele>348</ele>
        <time>2015-05-27T15:20:32Z</time>
      </trkpt>
      <trkpt lat="45.87532" lon="4.55474">
        <ele>348</ele>
        <time>2015-05-27T15:20:34Z</time>
      </trkpt>
      <trkpt lat="45.87539" lon="4.55478">
        <ele>348</ele>
        <time>2015-05-27T15:20:36Z</time>
      </trkpt>
      <trkpt lat="45.87546" lon="4.55483">
        <ele>348</ele>
        <time>2015-05-27T15:20:38Z</time>
      </trkpt>
      <trkpt lat="45.87552" lon="4.55487">
        <ele>348</ele>
        <time>2015-05-27T15:20:40Z</time>
      </trkpt>
      <trkpt lat="45.87559" lon="4.55491">
        <ele>348</ele>
        <time>2015-05-27T15:20:42Z</time>
      </trkpt>
      <trkpt lat="45.87566" lon="4.55495">
        <ele>349</ele>
        <time>2015-05-27T15:20:44Z</time>
      </trkpt>
      <trkpt lat="45.87572" lon="4.555">
        <ele>351</ele>
        <time>2015-05-27T15:20:46Z</time>
      </trkpt>
      <trkpt lat="45.87578" lon="4.55504">
        <ele>352</ele>
        <time>2015-05-27T15:20:48Z</time>
      </trkpt>
      <trkpt lat="45.87584" lon="4.55509">
        <ele>352</ele>
        <time>2015-05-27T15:20:50Z</time>
      </trkpt>
      <trkpt lat="45.87591" lon="4.55514">
        <ele>352</ele>
        <time>2015-05-27T15:20:52Z</time>
      </trkpt>
      <trkpt lat="45.87597" lon="4.55519">
        <ele>353</ele>
        <time>2015-05-27T15:20:54Z</time>
      </trkpt>
      <trkpt lat="45.87603" lon="4.55524">
        <ele>353</ele>
        <time>2015-05-27T15:20:56Z</time>
      </trkpt>
      <trkpt lat="45.87609" lon="4.55528">
        <ele>353</ele>
        <time>2015-05-27T15:20:58Z</time>
      </trkpt>
      <trkpt lat="45.87616" lon="4.55532">
        <ele>355</ele>
        <time>2015-05-27T15:21:00Z</time>
      </trkpt>
      <trkpt lat="45.87623" lon="4.55536">
        <ele>356</ele>
        <time>2015-05-27T15:21:02Z</time>
      </trkpt>
      <trkpt lat="45.87629" lon="4.5554">
        <ele>355</ele>
        <time>2015-05-27T15:21:04Z</time>
      </trkpt>
      <trkpt lat="45.87635" lon="4.55544">
        <ele>354</ele>
        <time>2015-05-27T15:21:06Z</time>
      </trkpt>
      <trkpt lat="45.87642" lon="4.55549">
        <ele>353</ele>
        <time>2015-05-27T15:21:08Z</time>
      </trkpt>
      <trkpt lat="45.87648" lon="4.55554">
        <ele>352</ele>
        <time>2015-05-27T15:21:10Z</time>
      </trkpt>
      <trkpt lat="45.87653" lon="4.55559">
        <ele>352</ele>
        <time>2015-05-27T15:21:12Z</time>
      </trkpt>
      <trkpt lat="45.87659" lon="4.55563">
        <ele>353</ele>
        <time>2015-05-27T15:21:14Z</time>
      </trkpt>
      <trkpt lat="45.87665" lon="4.55568">
        <ele>353</ele>
        <time>2015-05-27T15:21:16Z</time>
      </trkpt>
      <trkpt lat="45.87671" lon="4.55573">
        <ele>352</ele>
        <time>2015-05-27T15:21:18Z</time>
      </trkpt>
      <trkpt lat="45.87676" lon="4.55577">
        <ele>352</ele>
        <time>2015-05-27T15:21:20Z</time>
      </trkpt>
      <trkpt lat="45.87681" lon="4.55581">
        <ele>353</ele>
        <time>2015-05-27T15:21:22Z</time>
      </trkpt>
      <trkpt lat="45.87686" lon="4.55584">
        <ele>352</ele>
        <time>2015-05-27T15:21:24Z</time>
      </trkpt>
      <trkpt lat="45.87691" lon="4.55588">
        <ele>353</ele>
        <time>2015-05-27T15:21:26Z</time>
      </trkpt>
      <trkpt lat="45.87696" lon="4.55591">
        <ele>354</ele>
        <time>2015-05-27T15:21:28Z</time>
      </trkpt>
      <trkpt lat="45.877" lon="4.55594">
        <ele>353</ele>
        <time>2015-05-27T15:21:30Z</time>
      </trkpt>
      <trkpt lat="45.87705" lon="4.55598">
        <ele>354</ele>
        <time>2015-05-27T15:21:32Z</time>
      </trkpt>
      <trkpt lat="45.87709" lon="4.55601">
        <ele>355</ele>
        <time>2015-05-27T15:21:34Z</time>
      </trkpt>
      <trkpt lat="45.87714" lon="4.55605">
        <ele>355</ele>
        <time>2015-05-27T15:21:36Z</time>
      </trkpt>
      <trkpt lat="45.8772" lon="4.55608">
        <ele>356</ele>
        <time>2015-05-27T15:21:38Z</time>
      </trkpt>
      <trkpt lat="45.87725" lon="4.55611">
        <ele>356</ele>
        <time>2015-05-27T15:21:40Z</time>
      </trkpt>
      <trkpt lat="45.87731" lon="4.55615">
        <ele>356</ele>
        <time>2015-05-27T15:21:42Z</time>
      </trkpt>
      <trkpt lat="45.87736" lon="4.55618">
        <ele>356</ele>
        <time>2015-05-27T15:21:44Z</time>
      </trkpt>
      <trkpt lat="45.87741" lon="4.55622">
        <ele>357</ele>
        <time>2015-05-27T15:21:46Z</time>
      </trkpt>
      <trkpt lat="45.87747" lon="4.55625">
        <ele>357</ele>
        <time>2015-05-27T15:21:48Z</time>
      </trkpt>
      <trkpt lat="45.87752" lon="4.5563">
        <ele>356</ele>
        <time>2015-05-27T15:21:50Z</time>
      </trkpt>
      <trkpt lat="45.87758" lon="4.55634">
        <ele>357</ele>
        <time>2015-05-27T15:21:52Z</time>
      </trkpt>
      <trkpt lat="45.87763" lon="4.55638">
        <ele>357</ele>
        <time>2015-05-27T15:21:54Z</time>
      </trkpt>
      <trkpt lat="45.87769" lon="4.55641">
        <ele>357</ele>
        <time>2015-05-27T15:21:56Z</time>
      </trkpt>
      <trkpt lat="45.87774" lon="4.55644">
        <ele>358</ele>
        <time>2015-05-27T15:21:58Z</time>
      </trkpt>
      <trkpt lat="45.87779" lon="4.55647">
        <ele>358</ele>
        <time>2015-05-27T15:22:00Z</time>
      </trkpt>
      <trkpt lat="45.87783" lon="4.5565">
        <ele>360</ele>
        <time>2015-05-27T15:22:02Z</time>
      </trkpt>
      <trkpt lat="45.87788" lon="4.55653">
        <ele>358</ele>
        <time>2015-05-27T15:22:04Z</time>
      </trkpt>
      <trkpt lat="45.87793" lon="4.55657">
        <ele>358</ele>
        <time>2015-05-27T15:22:06Z</time>
      </trkpt>
      <trkpt lat="45.87799" lon="4.55661">
        <ele>359</ele>
        <time>2015-05-27T15:22:08Z</time>
      </trkpt>
      <trkpt lat="45.87805" lon="4.55664">
        <ele>359</ele>
        <time>2015-05-27T15:22:10Z</time>
      </trkpt>
      <trkpt lat="45.87811" lon="4.55667">
        <ele>359</ele>
        <time>2015-05-27T15:22:12Z</time>
      </trkpt>
      <trkpt lat="45.87816" lon="4.55671">
        <ele>361</ele>
        <time>2015-05-27T15:22:14Z</time>
      </trkpt>
      <trkpt lat="45.87823" lon="4.55675">
        <ele>359</ele>
        <time>2015-05-27T15:22:16Z</time>
      </trkpt>
      <trkpt lat="45.87828" lon="4.5568">
        <ele>359</ele>
        <time>2015-05-27T15:22:18Z</time>
      </trkpt>
      <trkpt lat="45.87835" lon="4.55686">
        <ele>358</ele>
        <time>2015-05-27T15:22:20Z</time>
      </trkpt>
      <trkpt lat="45.87841" lon="4.55691">
        <ele>357</ele>
        <time>2015-05-27T15:22:22Z</time>
      </trkpt>
      <trkpt lat="45.87847" lon="4.55696">
        <ele>358</ele>
        <time>2015-05-27T15:22:24Z</time>
      </trkpt>
      <trkpt lat="45.87853" lon="4.55701">
        <ele>358</ele>
        <time>2015-05-27T15:22:26Z</time>
      </trkpt>
      <trkpt lat="45.87858" lon="4.55707">
        <ele>358</ele>
        <time>2015-05-27T15:22:28Z</time>
      </trkpt>
      <trkpt lat="45.8786" lon="4.55716">
        <ele>358</ele>
        <time>2015-05-27T15:22:30Z</time>
      </trkpt>
      <trkpt lat="45.8786" lon="4.55725">
        <ele>358</ele>
        <time>2015-05-27T15:22:32Z</time>
      </trkpt>
      <trkpt lat="45.8786" lon="4.55735">
        <ele>358</ele>
        <time>2015-05-27T15:22:34Z</time>
      </trkpt>
      <trkpt lat="45.8786" lon="4.55744">
        <ele>359</ele>
        <time>2015-05-27T15:22:36Z</time>
      </trkpt>
      <trkpt lat="45.87861" lon="4.55753">
        <ele>359</ele>
        <time>2015-05-27T15:22:38Z</time>
      </trkpt>
      <trkpt lat="45.87862" lon="4.55761">
        <ele>360</ele>
        <time>2015-05-27T15:22:40Z</time>
      </trkpt>
      <trkpt lat="45.87863" lon="4.55769">
        <ele>361</ele>
        <time>2015-05-27T15:22:42Z</time>
      </trkpt>
      <trkpt lat="45.87864" lon="4.55778">
        <ele>361</ele>
        <time>2015-05-27T15:22:44Z</time>
      </trkpt>
      <trkpt lat="45.87864" lon="4.55787">
        <ele>360</ele>
        <time>2015-05-27T15:22:46Z</time>
      </trkpt>
      <trkpt lat="45.87865" lon="4.55797">
        <ele>360</ele>
        <time>2015-05-27T15:22:48Z</time>
      </trkpt>
      <trkpt lat="45.87865" lon="4.55805">
        <ele>360</ele>
        <time>2015-05-27T15:22:50Z</time>
      </trkpt>
      <trkpt lat="45.87865" lon="4.55815">
        <ele>362</ele>
        <time>2015-05-27T15:22:52Z</time>
      </trkpt>
      <trkpt lat="45.87865" lon="4.55825">
        <ele>362</ele>
        <time>2015-05-27T15:22:54Z</time>
      </trkpt>
      <trkpt lat="45.87864" lon="4.55835">
        <ele>362</ele>
        <time>2015-05-27T15:22:56Z</time>
      </trkpt>
      <trkpt lat="45.87863" lon="4.55843">
        <ele>362</ele>
        <time>2015-05-27T15:22:58Z</time>
      </trkpt>
      <trkpt lat="45.87858" lon="4.5585">
        <ele>357</ele>
        <time>2015-05-27T15:23:00Z</time>
      </trkpt>
      <trkpt lat="45.87851" lon="4.55856">
        <ele>354</ele>
        <time>2015-05-27T15:23:02Z</time>
      </trkpt>
      <trkpt lat="45.87844" lon="4.55859">
        <ele>356</ele>
        <time>2015-05-27T15:23:03Z</time>
      </trkpt>
      <trkpt lat="45.87848" lon="4.55869">
        <ele>359</ele>
        <time>2015-05-27T15:23:05Z</time>
      </trkpt>
      <trkpt lat="45.87855" lon="4.55878">
        <ele>363</ele>
        <time>2015-05-27T15:23:07Z</time>
      </trkpt>
      <trkpt lat="45.87858" lon="4.55884">
        <ele>365</ele>
        <time>2015-05-27T15:23:10Z</time>
      </trkpt>
      <trkpt lat="45.87863" lon="4.55887">
        <ele>366</ele>
        <time>2015-05-27T15:23:12Z</time>
      </trkpt>
      <trkpt lat="45.87868" lon="4.55889">
        <ele>367</ele>
        <time>2015-05-27T15:23:14Z</time>
      </trkpt>
      <trkpt lat="45.87873" lon="4.55892">
        <ele>368</ele>
        <time>2015-05-27T15:23:16Z</time>
      </trkpt>
      <trkpt lat="45.87878" lon="4.55892">
        <ele>368</ele>
        <time>2015-05-27T15:23:18Z</time>
      </trkpt>
      <trkpt lat="45.87884" lon="4.55891">
        <ele>370</ele>
        <time>2015-05-27T15:23:20Z</time>
      </trkpt>
      <trkpt lat="45.8789" lon="4.55892">
        <ele>371</ele>
        <time>2015-05-27T15:23:22Z</time>
      </trkpt>
      <trkpt lat="45.87896" lon="4.55898">
        <ele>370</ele>
        <time>2015-05-27T15:23:24Z</time>
      </trkpt>
      <trkpt lat="45.879" lon="4.55906">
        <ele>371</ele>
        <time>2015-05-27T15:23:26Z</time>
      </trkpt>
      <trkpt lat="45.87905" lon="4.55912">
        <ele>372</ele>
        <time>2015-05-27T15:23:28Z</time>
      </trkpt>
      <trkpt lat="45.87911" lon="4.55917">
        <ele>374</ele>
        <time>2015-05-27T15:23:30Z</time>
      </trkpt>
      <trkpt lat="45.87916" lon="4.5592">
        <ele>379</ele>
        <time>2015-05-27T15:23:32Z</time>
      </trkpt>
      <trkpt lat="45.87921" lon="4.55923">
        <ele>379</ele>
        <time>2015-05-27T15:23:35Z</time>
      </trkpt>
      <trkpt lat="45.87925" lon="4.55927">
        <ele>376</ele>
        <time>2015-05-27T15:23:38Z</time>
      </trkpt>
      <trkpt lat="45.87928" lon="4.55932">
        <ele>373</ele>
        <time>2015-05-27T15:23:45Z</time>
      </trkpt>
      <trkpt lat="45.87926" lon="4.5594">
        <ele>369</ele>
        <time>2015-05-27T15:23:54Z</time>
      </trkpt>
      <trkpt lat="45.87927" lon="4.55947">
        <ele>370</ele>
        <time>2015-05-27T15:23:57Z</time>
      </trkpt>
      <trkpt lat="45.87926" lon="4.55955">
        <ele>372</ele>
        <time>2015-05-27T15:24:01Z</time>
      </trkpt>
      <trkpt lat="45.87927" lon="4.55962">
        <ele>374</ele>
        <time>2015-05-27T15:24:06Z</time>
      </trkpt>
      <trkpt lat="45.8793" lon="4.5596">
        <ele>374</ele>
        <time>2015-05-27T15:24:25Z</time>
      </trkpt>
      <trkpt lat="45.87928" lon="4.55958">
        <ele>372</ele>
        <time>2015-05-27T15:24:41Z</time>
      </trkpt>
    </trkseg>
  </trk>
</gpx>